<?xml version="1.0" encoding="UTF-8" standalone="no" ?>
<gpx xmlns="http://www.topografix.com/GPX/1/1" xmlns:xsi="http://www.w3.org/2001/XMLSchema-instance" xsi:schemaLocation="http://www.topografix.com/GPX/1/1 http://www.topografix.com/GPX/1/1/gpx.xsd" version="1.1" creator="VisuGPX - https://www.visugpx.com">
  <metadata>
    <name>Revel-St Agnès </name>
    <desc><![CDATA[File with points/tracks from Locus Map/3.43.1]]></desc>
  </metadata>
  <trk>
    <name><![CDATA[2020-02-03 14:13:54]]></name>
    <desc><![CDATA[St Agnès]]></desc>
    <extensions>
      <line xmlns="http://www.topografix.com/GPX/gpx_style/0/2">
        <color>0000FF</color>
        <opacity>0.59</opacity>
        <width>6.0</width>
      </line>
    </extensions>
    <trkseg>
      <trkpt lat="45.18359" lon="5.87872">
        <ele>764.46</ele>
        <time>2020-02-03T13:13:55.000Z</time>
      </trkpt>
      <trkpt lat="45.1837" lon="5.87858">
        <ele>765.88</ele>
        <time>2020-02-03T13:14:00.000Z</time>
      </trkpt>
      <trkpt lat="45.18384" lon="5.87845">
        <ele>765.38</ele>
        <time>2020-02-03T13:14:05.000Z</time>
      </trkpt>
      <trkpt lat="45.18397" lon="5.87831">
        <ele>769</ele>
        <time>2020-02-03T13:14:10.000Z</time>
      </trkpt>
      <trkpt lat="45.1841" lon="5.87818">
        <ele>774.03</ele>
        <time>2020-02-03T13:14:15.000Z</time>
      </trkpt>
      <trkpt lat="45.18424" lon="5.87806">
        <ele>776.31</ele>
        <time>2020-02-03T13:14:20.000Z</time>
      </trkpt>
      <trkpt lat="45.1844" lon="5.87798">
        <ele>776.14</ele>
        <time>2020-02-03T13:14:25.000Z</time>
      </trkpt>
      <trkpt lat="45.18456" lon="5.87795">
        <ele>778.13</ele>
        <time>2020-02-03T13:14:30.000Z</time>
      </trkpt>
      <trkpt lat="45.18472" lon="5.87795">
        <ele>778.04</ele>
        <time>2020-02-03T13:14:35.000Z</time>
      </trkpt>
      <trkpt lat="45.18486" lon="5.87796">
        <ele>777.61</ele>
        <time>2020-02-03T13:14:40.000Z</time>
      </trkpt>
      <trkpt lat="45.18499" lon="5.87803">
        <ele>777.7</ele>
        <time>2020-02-03T13:14:45.000Z</time>
      </trkpt>
      <trkpt lat="45.18514" lon="5.8781">
        <ele>779.31</ele>
        <time>2020-02-03T13:14:50.000Z</time>
      </trkpt>
      <trkpt lat="45.18531" lon="5.87819">
        <ele>783.43</ele>
        <time>2020-02-03T13:14:55.000Z</time>
      </trkpt>
      <trkpt lat="45.18547" lon="5.87828">
        <ele>786.27</ele>
        <time>2020-02-03T13:15:00.000Z</time>
      </trkpt>
      <trkpt lat="45.18563" lon="5.87837">
        <ele>788.88</ele>
        <time>2020-02-03T13:15:05.000Z</time>
      </trkpt>
      <trkpt lat="45.18576" lon="5.87846">
        <ele>789.83</ele>
        <time>2020-02-03T13:15:10.000Z</time>
      </trkpt>
      <trkpt lat="45.18591" lon="5.87855">
        <ele>790.44</ele>
        <time>2020-02-03T13:15:15.000Z</time>
      </trkpt>
      <trkpt lat="45.18605" lon="5.87864">
        <ele>795.88</ele>
        <time>2020-02-03T13:15:20.000Z</time>
      </trkpt>
      <trkpt lat="45.18619" lon="5.87874">
        <ele>795.9</ele>
        <time>2020-02-03T13:15:25.000Z</time>
      </trkpt>
      <trkpt lat="45.18632" lon="5.87886">
        <ele>796.88</ele>
        <time>2020-02-03T13:15:30.000Z</time>
      </trkpt>
      <trkpt lat="45.18645" lon="5.879">
        <ele>796.75</ele>
        <time>2020-02-03T13:15:35.000Z</time>
      </trkpt>
      <trkpt lat="45.18658" lon="5.87915">
        <ele>794.95</ele>
        <time>2020-02-03T13:15:40.000Z</time>
      </trkpt>
      <trkpt lat="45.18669" lon="5.87933">
        <ele>795.23</ele>
        <time>2020-02-03T13:15:45.000Z</time>
      </trkpt>
      <trkpt lat="45.18679" lon="5.87953">
        <ele>800.69</ele>
        <time>2020-02-03T13:15:50.000Z</time>
      </trkpt>
      <trkpt lat="45.18686" lon="5.87976">
        <ele>799.74</ele>
        <time>2020-02-03T13:15:55.000Z</time>
      </trkpt>
      <trkpt lat="45.18689" lon="5.87997">
        <ele>793.56</ele>
        <time>2020-02-03T13:16:00.000Z</time>
      </trkpt>
      <trkpt lat="45.18691" lon="5.88017">
        <ele>793.43</ele>
        <time>2020-02-03T13:16:05.000Z</time>
      </trkpt>
      <trkpt lat="45.18697" lon="5.88037">
        <ele>795.14</ele>
        <time>2020-02-03T13:16:10.000Z</time>
      </trkpt>
      <trkpt lat="45.18703" lon="5.88057">
        <ele>800.83</ele>
        <time>2020-02-03T13:16:15.000Z</time>
      </trkpt>
      <trkpt lat="45.1871" lon="5.88078">
        <ele>803.36</ele>
        <time>2020-02-03T13:16:20.000Z</time>
      </trkpt>
      <trkpt lat="45.18712" lon="5.88103">
        <ele>803.93</ele>
        <time>2020-02-03T13:16:25.000Z</time>
      </trkpt>
      <trkpt lat="45.18709" lon="5.88127">
        <ele>806.17</ele>
        <time>2020-02-03T13:16:30.000Z</time>
      </trkpt>
      <trkpt lat="45.18707" lon="5.8815">
        <ele>807.86</ele>
        <time>2020-02-03T13:16:35.000Z</time>
      </trkpt>
      <trkpt lat="45.18707" lon="5.88171">
        <ele>810.27</ele>
        <time>2020-02-03T13:16:40.000Z</time>
      </trkpt>
      <trkpt lat="45.18704" lon="5.88196">
        <ele>812.56</ele>
        <time>2020-02-03T13:16:45.000Z</time>
      </trkpt>
      <trkpt lat="45.18704" lon="5.88221">
        <ele>816.2</ele>
        <time>2020-02-03T13:16:50.000Z</time>
      </trkpt>
      <trkpt lat="45.18704" lon="5.88244">
        <ele>818</ele>
        <time>2020-02-03T13:16:55.000Z</time>
      </trkpt>
      <trkpt lat="45.18708" lon="5.88265">
        <ele>816.53</ele>
        <time>2020-02-03T13:17:00.000Z</time>
      </trkpt>
      <trkpt lat="45.18716" lon="5.88284">
        <ele>816.46</ele>
        <time>2020-02-03T13:17:05.000Z</time>
      </trkpt>
      <trkpt lat="45.18726" lon="5.88306">
        <ele>820.2</ele>
        <time>2020-02-03T13:17:10.000Z</time>
      </trkpt>
      <trkpt lat="45.18737" lon="5.88327">
        <ele>824.03</ele>
        <time>2020-02-03T13:17:15.000Z</time>
      </trkpt>
      <trkpt lat="45.1875" lon="5.88345">
        <ele>825.26</ele>
        <time>2020-02-03T13:17:20.000Z</time>
      </trkpt>
      <trkpt lat="45.18764" lon="5.8837">
        <ele>825.47</ele>
        <time>2020-02-03T13:17:25.000Z</time>
      </trkpt>
      <trkpt lat="45.18778" lon="5.88394">
        <ele>826.07</ele>
        <time>2020-02-03T13:17:30.000Z</time>
      </trkpt>
      <trkpt lat="45.18792" lon="5.88416">
        <ele>825.31</ele>
        <time>2020-02-03T13:17:35.000Z</time>
      </trkpt>
      <trkpt lat="45.18809" lon="5.88441">
        <ele>824.53</ele>
        <time>2020-02-03T13:17:40.000Z</time>
      </trkpt>
      <trkpt lat="45.18826" lon="5.88461">
        <ele>821.02</ele>
        <time>2020-02-03T13:17:45.000Z</time>
      </trkpt>
      <trkpt lat="45.18848" lon="5.88472">
        <ele>821.26</ele>
        <time>2020-02-03T13:17:50.000Z</time>
      </trkpt>
      <trkpt lat="45.18874" lon="5.88475">
        <ele>826.67</ele>
        <time>2020-02-03T13:17:55.000Z</time>
      </trkpt>
      <trkpt lat="45.18896" lon="5.88473">
        <ele>829.19</ele>
        <time>2020-02-03T13:18:00.000Z</time>
      </trkpt>
      <trkpt lat="45.18921" lon="5.88471">
        <ele>828.08</ele>
        <time>2020-02-03T13:18:05.000Z</time>
      </trkpt>
      <trkpt lat="45.18944" lon="5.88471">
        <ele>828.42</ele>
        <time>2020-02-03T13:18:10.000Z</time>
      </trkpt>
      <trkpt lat="45.1897" lon="5.88465">
        <ele>831.26</ele>
        <time>2020-02-03T13:18:15.000Z</time>
      </trkpt>
      <trkpt lat="45.18993" lon="5.88463">
        <ele>829.37</ele>
        <time>2020-02-03T13:18:20.000Z</time>
      </trkpt>
      <trkpt lat="45.19016" lon="5.88457">
        <ele>832.22</ele>
        <time>2020-02-03T13:18:25.000Z</time>
      </trkpt>
      <trkpt lat="45.19035" lon="5.88453">
        <ele>834.77</ele>
        <time>2020-02-03T13:18:30.000Z</time>
      </trkpt>
      <trkpt lat="45.19054" lon="5.88453">
        <ele>833.19</ele>
        <time>2020-02-03T13:18:35.000Z</time>
      </trkpt>
      <trkpt lat="45.19073" lon="5.88455">
        <ele>833.21</ele>
        <time>2020-02-03T13:18:40.000Z</time>
      </trkpt>
      <trkpt lat="45.1909" lon="5.88455">
        <ele>833.51</ele>
        <time>2020-02-03T13:18:45.000Z</time>
      </trkpt>
      <trkpt lat="45.19105" lon="5.88455">
        <ele>836.7</ele>
        <time>2020-02-03T13:18:50.000Z</time>
      </trkpt>
      <trkpt lat="45.19124" lon="5.88459">
        <ele>835.45</ele>
        <time>2020-02-03T13:18:55.000Z</time>
      </trkpt>
      <trkpt lat="45.19146" lon="5.88461">
        <ele>842.3</ele>
        <time>2020-02-03T13:19:00.000Z</time>
      </trkpt>
      <trkpt lat="45.19167" lon="5.88463">
        <ele>845.58</ele>
        <time>2020-02-03T13:19:05.000Z</time>
      </trkpt>
      <trkpt lat="45.19186" lon="5.88465">
        <ele>846.55</ele>
        <time>2020-02-03T13:19:10.000Z</time>
      </trkpt>
      <trkpt lat="45.19205" lon="5.88469">
        <ele>845.95</ele>
        <time>2020-02-03T13:19:15.000Z</time>
      </trkpt>
      <trkpt lat="45.19224" lon="5.88473">
        <ele>848.94</ele>
        <time>2020-02-03T13:19:20.000Z</time>
      </trkpt>
      <trkpt lat="45.19244" lon="5.88468">
        <ele>851.53</ele>
        <time>2020-02-03T13:19:25.000Z</time>
      </trkpt>
      <trkpt lat="45.19262" lon="5.88458">
        <ele>854.11</ele>
        <time>2020-02-03T13:19:30.000Z</time>
      </trkpt>
      <trkpt lat="45.1928" lon="5.88452">
        <ele>853.44</ele>
        <time>2020-02-03T13:19:35.000Z</time>
      </trkpt>
      <trkpt lat="45.19298" lon="5.88446">
        <ele>856.04</ele>
        <time>2020-02-03T13:19:40.000Z</time>
      </trkpt>
      <trkpt lat="45.19318" lon="5.88439">
        <ele>860.05</ele>
        <time>2020-02-03T13:19:45.000Z</time>
      </trkpt>
      <trkpt lat="45.19336" lon="5.88432">
        <ele>861.14</ele>
        <time>2020-02-03T13:19:50.000Z</time>
      </trkpt>
      <trkpt lat="45.19353" lon="5.8842">
        <ele>862.84</ele>
        <time>2020-02-03T13:19:55.000Z</time>
      </trkpt>
      <trkpt lat="45.19368" lon="5.88402">
        <ele>865.08</ele>
        <time>2020-02-03T13:20:00.000Z</time>
      </trkpt>
      <trkpt lat="45.19377" lon="5.88379">
        <ele>864.93</ele>
        <time>2020-02-03T13:20:05.000Z</time>
      </trkpt>
      <trkpt lat="45.19385" lon="5.88357">
        <ele>866.78</ele>
        <time>2020-02-03T13:20:10.000Z</time>
      </trkpt>
      <trkpt lat="45.19388" lon="5.88332">
        <ele>868.37</ele>
        <time>2020-02-03T13:20:15.000Z</time>
      </trkpt>
      <trkpt lat="45.19392" lon="5.88308">
        <ele>867.68</ele>
        <time>2020-02-03T13:20:20.000Z</time>
      </trkpt>
      <trkpt lat="45.19396" lon="5.88283">
        <ele>869.22</ele>
        <time>2020-02-03T13:20:25.000Z</time>
      </trkpt>
      <trkpt lat="45.194" lon="5.88257">
        <ele>872.4</ele>
        <time>2020-02-03T13:20:30.000Z</time>
      </trkpt>
      <trkpt lat="45.19396" lon="5.88229">
        <ele>870.99</ele>
        <time>2020-02-03T13:20:35.000Z</time>
      </trkpt>
      <trkpt lat="45.19404" lon="5.88204">
        <ele>876.05</ele>
        <time>2020-02-03T13:20:40.000Z</time>
      </trkpt>
      <trkpt lat="45.19423" lon="5.88191">
        <ele>877.4</ele>
        <time>2020-02-03T13:20:45.000Z</time>
      </trkpt>
      <trkpt lat="45.19429" lon="5.88162">
        <ele>876.36</ele>
        <time>2020-02-03T13:20:50.000Z</time>
      </trkpt>
      <trkpt lat="45.19435" lon="5.88135">
        <ele>878.82</ele>
        <time>2020-02-03T13:20:55.000Z</time>
      </trkpt>
      <trkpt lat="45.19439" lon="5.88107">
        <ele>878.93</ele>
        <time>2020-02-03T13:21:00.000Z</time>
      </trkpt>
      <trkpt lat="45.1944" lon="5.88077">
        <ele>880.35</ele>
        <time>2020-02-03T13:21:05.000Z</time>
      </trkpt>
      <trkpt lat="45.19436" lon="5.88046">
        <ele>880.81</ele>
        <time>2020-02-03T13:21:10.000Z</time>
      </trkpt>
      <trkpt lat="45.19425" lon="5.88019">
        <ele>882.43</ele>
        <time>2020-02-03T13:21:15.000Z</time>
      </trkpt>
      <trkpt lat="45.19409" lon="5.87996">
        <ele>883.53</ele>
        <time>2020-02-03T13:21:20.000Z</time>
      </trkpt>
      <trkpt lat="45.19393" lon="5.87975">
        <ele>882.6</ele>
        <time>2020-02-03T13:21:25.000Z</time>
      </trkpt>
      <trkpt lat="45.19377" lon="5.87954">
        <ele>881.3</ele>
        <time>2020-02-03T13:21:30.000Z</time>
      </trkpt>
      <trkpt lat="45.19364" lon="5.8793">
        <ele>882.04</ele>
        <time>2020-02-03T13:21:35.000Z</time>
      </trkpt>
      <trkpt lat="45.19354" lon="5.87904">
        <ele>883.88</ele>
        <time>2020-02-03T13:21:40.000Z</time>
      </trkpt>
      <trkpt lat="45.19347" lon="5.87875">
        <ele>881.39</ele>
        <time>2020-02-03T13:21:45.000Z</time>
      </trkpt>
      <trkpt lat="45.19346" lon="5.87844">
        <ele>884.61</ele>
        <time>2020-02-03T13:21:50.000Z</time>
      </trkpt>
      <trkpt lat="45.19348" lon="5.87814">
        <ele>885.57</ele>
        <time>2020-02-03T13:21:55.000Z</time>
      </trkpt>
      <trkpt lat="45.1935" lon="5.87783">
        <ele>885.56</ele>
        <time>2020-02-03T13:22:00.000Z</time>
      </trkpt>
      <trkpt lat="45.19353" lon="5.87749">
        <ele>885.65</ele>
        <time>2020-02-03T13:22:05.000Z</time>
      </trkpt>
      <trkpt lat="45.19358" lon="5.8772">
        <ele>888.52</ele>
        <time>2020-02-03T13:22:10.000Z</time>
      </trkpt>
      <trkpt lat="45.19366" lon="5.87696">
        <ele>889.19</ele>
        <time>2020-02-03T13:22:15.000Z</time>
      </trkpt>
      <trkpt lat="45.19376" lon="5.87679">
        <ele>887.97</ele>
        <time>2020-02-03T13:22:20.000Z</time>
      </trkpt>
      <trkpt lat="45.19388" lon="5.87668">
        <ele>888.7</ele>
        <time>2020-02-03T13:22:25.000Z</time>
      </trkpt>
      <trkpt lat="45.194" lon="5.8766">
        <ele>886.67</ele>
        <time>2020-02-03T13:22:30.000Z</time>
      </trkpt>
      <trkpt lat="45.19414" lon="5.87659">
        <ele>887.08</ele>
        <time>2020-02-03T13:22:35.000Z</time>
      </trkpt>
      <trkpt lat="45.1943" lon="5.87659">
        <ele>888.2</ele>
        <time>2020-02-03T13:22:40.000Z</time>
      </trkpt>
      <trkpt lat="45.19449" lon="5.87659">
        <ele>888.9</ele>
        <time>2020-02-03T13:22:45.000Z</time>
      </trkpt>
      <trkpt lat="45.19467" lon="5.87663">
        <ele>886.34</ele>
        <time>2020-02-03T13:22:50.000Z</time>
      </trkpt>
      <trkpt lat="45.19492" lon="5.87663">
        <ele>887.63</ele>
        <time>2020-02-03T13:22:55.000Z</time>
      </trkpt>
      <trkpt lat="45.19525" lon="5.87666">
        <ele>884.68</ele>
        <time>2020-02-03T13:23:00.000Z</time>
      </trkpt>
      <trkpt lat="45.19559" lon="5.87645">
        <ele>885.84</ele>
        <time>2020-02-03T13:23:05.000Z</time>
      </trkpt>
      <trkpt lat="45.19594" lon="5.87617">
        <ele>881.4</ele>
        <time>2020-02-03T13:23:10.000Z</time>
      </trkpt>
      <trkpt lat="45.19625" lon="5.87573">
        <ele>876.72</ele>
        <time>2020-02-03T13:23:15.000Z</time>
      </trkpt>
      <trkpt lat="45.19658" lon="5.87533">
        <ele>876.49</ele>
        <time>2020-02-03T13:23:20.000Z</time>
      </trkpt>
      <trkpt lat="45.19681" lon="5.8748">
        <ele>874.99</ele>
        <time>2020-02-03T13:23:25.000Z</time>
      </trkpt>
      <trkpt lat="45.19688" lon="5.8742">
        <ele>876.48</ele>
        <time>2020-02-03T13:23:30.000Z</time>
      </trkpt>
      <trkpt lat="45.19685" lon="5.87362">
        <ele>875.02</ele>
        <time>2020-02-03T13:23:35.000Z</time>
      </trkpt>
      <trkpt lat="45.19685" lon="5.87308">
        <ele>873.74</ele>
        <time>2020-02-03T13:23:40.000Z</time>
      </trkpt>
      <trkpt lat="45.19681" lon="5.87257">
        <ele>875.79</ele>
        <time>2020-02-03T13:23:45.000Z</time>
      </trkpt>
      <trkpt lat="45.19673" lon="5.87214">
        <ele>874.54</ele>
        <time>2020-02-03T13:23:50.000Z</time>
      </trkpt>
      <trkpt lat="45.19657" lon="5.87183">
        <ele>875.86</ele>
        <time>2020-02-03T13:23:55.000Z</time>
      </trkpt>
      <trkpt lat="45.19644" lon="5.87158">
        <ele>876.49</ele>
        <time>2020-02-03T13:24:00.000Z</time>
      </trkpt>
      <trkpt lat="45.19627" lon="5.87134">
        <ele>877.08</ele>
        <time>2020-02-03T13:24:05.000Z</time>
      </trkpt>
      <trkpt lat="45.19613" lon="5.87108">
        <ele>877.42</ele>
        <time>2020-02-03T13:24:10.000Z</time>
      </trkpt>
      <trkpt lat="45.19601" lon="5.87083">
        <ele>877.22</ele>
        <time>2020-02-03T13:24:15.000Z</time>
      </trkpt>
      <trkpt lat="45.19583" lon="5.87069">
        <ele>875.95</ele>
        <time>2020-02-03T13:24:20.000Z</time>
      </trkpt>
      <trkpt lat="45.1957" lon="5.87054">
        <ele>874.98</ele>
        <time>2020-02-03T13:24:25.000Z</time>
      </trkpt>
      <trkpt lat="45.19558" lon="5.87037">
        <ele>871.73</ele>
        <time>2020-02-03T13:24:30.000Z</time>
      </trkpt>
      <trkpt lat="45.19549" lon="5.8702">
        <ele>871.05</ele>
        <time>2020-02-03T13:24:35.000Z</time>
      </trkpt>
      <trkpt lat="45.1954" lon="5.86997">
        <ele>868.98</ele>
        <time>2020-02-03T13:24:40.000Z</time>
      </trkpt>
      <trkpt lat="45.19534" lon="5.86959">
        <ele>868.85</ele>
        <time>2020-02-03T13:24:45.000Z</time>
      </trkpt>
      <trkpt lat="45.19531" lon="5.86915">
        <ele>867.78</ele>
        <time>2020-02-03T13:24:50.000Z</time>
      </trkpt>
      <trkpt lat="45.19547" lon="5.86872">
        <ele>866</ele>
        <time>2020-02-03T13:24:55.000Z</time>
      </trkpt>
      <trkpt lat="45.19589" lon="5.86856">
        <ele>865.03</ele>
        <time>2020-02-03T13:25:00.000Z</time>
      </trkpt>
      <trkpt lat="45.19636" lon="5.86859">
        <ele>862</ele>
        <time>2020-02-03T13:25:05.000Z</time>
      </trkpt>
      <trkpt lat="45.19688" lon="5.86852">
        <ele>859.69</ele>
        <time>2020-02-03T13:25:10.000Z</time>
      </trkpt>
      <trkpt lat="45.19721" lon="5.86801">
        <ele>855.43</ele>
        <time>2020-02-03T13:25:15.000Z</time>
      </trkpt>
      <trkpt lat="45.19729" lon="5.86738">
        <ele>847.33</ele>
        <time>2020-02-03T13:25:20.000Z</time>
      </trkpt>
      <trkpt lat="45.19779" lon="5.86715">
        <ele>839.08</ele>
        <time>2020-02-03T13:25:25.000Z</time>
      </trkpt>
      <trkpt lat="45.1984" lon="5.86725">
        <ele>835.32</ele>
        <time>2020-02-03T13:25:30.000Z</time>
      </trkpt>
      <trkpt lat="45.19905" lon="5.86724">
        <ele>829.37</ele>
        <time>2020-02-03T13:25:35.000Z</time>
      </trkpt>
      <trkpt lat="45.1997" lon="5.86707">
        <ele>826.82</ele>
        <time>2020-02-03T13:25:40.000Z</time>
      </trkpt>
      <trkpt lat="45.20026" lon="5.86756">
        <ele>827.09</ele>
        <time>2020-02-03T13:25:45.000Z</time>
      </trkpt>
      <trkpt lat="45.20061" lon="5.86829">
        <ele>827.12</ele>
        <time>2020-02-03T13:25:50.000Z</time>
      </trkpt>
      <trkpt lat="45.20075" lon="5.86898">
        <ele>820.29</ele>
        <time>2020-02-03T13:25:55.000Z</time>
      </trkpt>
      <trkpt lat="45.20068" lon="5.86983">
        <ele>816.58</ele>
        <time>2020-02-03T13:26:00.000Z</time>
      </trkpt>
      <trkpt lat="45.2006" lon="5.87073">
        <ele>813.55</ele>
        <time>2020-02-03T13:26:05.000Z</time>
      </trkpt>
      <trkpt lat="45.20068" lon="5.8716">
        <ele>811.32</ele>
        <time>2020-02-03T13:26:10.000Z</time>
      </trkpt>
      <trkpt lat="45.20113" lon="5.87239">
        <ele>809.29</ele>
        <time>2020-02-03T13:26:15.000Z</time>
      </trkpt>
      <trkpt lat="45.20141" lon="5.8732">
        <ele>801.81</ele>
        <time>2020-02-03T13:26:20.000Z</time>
      </trkpt>
      <trkpt lat="45.20153" lon="5.87402">
        <ele>799.15</ele>
        <time>2020-02-03T13:26:25.000Z</time>
      </trkpt>
      <trkpt lat="45.20119" lon="5.87466">
        <ele>794.56</ele>
        <time>2020-02-03T13:26:30.000Z</time>
      </trkpt>
      <trkpt lat="45.20112" lon="5.87544">
        <ele>790.82</ele>
        <time>2020-02-03T13:26:35.000Z</time>
      </trkpt>
      <trkpt lat="45.20135" lon="5.87624">
        <ele>788.16</ele>
        <time>2020-02-03T13:26:40.000Z</time>
      </trkpt>
      <trkpt lat="45.20136" lon="5.87715">
        <ele>784.91</ele>
        <time>2020-02-03T13:26:45.000Z</time>
      </trkpt>
      <trkpt lat="45.20129" lon="5.87806">
        <ele>783.43</ele>
        <time>2020-02-03T13:26:50.000Z</time>
      </trkpt>
      <trkpt lat="45.20132" lon="5.87898">
        <ele>780.77</ele>
        <time>2020-02-03T13:26:55.000Z</time>
      </trkpt>
      <trkpt lat="45.20155" lon="5.87991">
        <ele>776.79</ele>
        <time>2020-02-03T13:27:00.000Z</time>
      </trkpt>
      <trkpt lat="45.20164" lon="5.88076">
        <ele>769.82</ele>
        <time>2020-02-03T13:27:05.000Z</time>
      </trkpt>
      <trkpt lat="45.20172" lon="5.88166">
        <ele>765.59</ele>
        <time>2020-02-03T13:27:10.000Z</time>
      </trkpt>
      <trkpt lat="45.20216" lon="5.88215">
        <ele>752.74</ele>
        <time>2020-02-03T13:27:15.000Z</time>
      </trkpt>
      <trkpt lat="45.20266" lon="5.88221">
        <ele>745.47</ele>
        <time>2020-02-03T13:27:20.000Z</time>
      </trkpt>
      <trkpt lat="45.20319" lon="5.88185">
        <ele>739.87</ele>
        <time>2020-02-03T13:27:25.000Z</time>
      </trkpt>
      <trkpt lat="45.20364" lon="5.8814">
        <ele>731.45</ele>
        <time>2020-02-03T13:27:30.000Z</time>
      </trkpt>
      <trkpt lat="45.20415" lon="5.88131">
        <ele>729.07</ele>
        <time>2020-02-03T13:27:35.000Z</time>
      </trkpt>
      <trkpt lat="45.20462" lon="5.88145">
        <ele>726.74</ele>
        <time>2020-02-03T13:27:40.000Z</time>
      </trkpt>
      <trkpt lat="45.20505" lon="5.88148">
        <ele>727.33</ele>
        <time>2020-02-03T13:27:45.000Z</time>
      </trkpt>
      <trkpt lat="45.20545" lon="5.88134">
        <ele>725.17</ele>
        <time>2020-02-03T13:27:50.000Z</time>
      </trkpt>
      <trkpt lat="45.20581" lon="5.88154">
        <ele>727.88</ele>
        <time>2020-02-03T13:27:55.000Z</time>
      </trkpt>
      <trkpt lat="45.20598" lon="5.88197">
        <ele>725.86</ele>
        <time>2020-02-03T13:28:00.000Z</time>
      </trkpt>
      <trkpt lat="45.20612" lon="5.88239">
        <ele>723.77</ele>
        <time>2020-02-03T13:28:05.000Z</time>
      </trkpt>
      <trkpt lat="45.20639" lon="5.8825">
        <ele>725.49</ele>
        <time>2020-02-03T13:28:10.000Z</time>
      </trkpt>
      <trkpt lat="45.20655" lon="5.88265">
        <ele>726.77</ele>
        <time>2020-02-03T13:28:15.000Z</time>
      </trkpt>
      <trkpt lat="45.20661" lon="5.8828">
        <ele>726.69</ele>
        <time>2020-02-03T13:28:20.000Z</time>
      </trkpt>
      <trkpt lat="45.20666" lon="5.883">
        <ele>726.23</ele>
        <time>2020-02-03T13:28:25.000Z</time>
      </trkpt>
      <trkpt lat="45.20675" lon="5.88318">
        <ele>729.4</ele>
        <time>2020-02-03T13:28:30.000Z</time>
      </trkpt>
      <trkpt lat="45.20687" lon="5.88333">
        <ele>729.72</ele>
        <time>2020-02-03T13:28:35.000Z</time>
      </trkpt>
      <trkpt lat="45.20703" lon="5.88342">
        <ele>729.92</ele>
        <time>2020-02-03T13:28:40.000Z</time>
      </trkpt>
      <trkpt lat="45.20722" lon="5.88342">
        <ele>734.84</ele>
        <time>2020-02-03T13:28:45.000Z</time>
      </trkpt>
      <trkpt lat="45.20738" lon="5.8834">
        <ele>739.4</ele>
        <time>2020-02-03T13:28:50.000Z</time>
      </trkpt>
      <trkpt lat="45.20755" lon="5.88338">
        <ele>738.01</ele>
        <time>2020-02-03T13:28:55.000Z</time>
      </trkpt>
      <trkpt lat="45.20773" lon="5.88336">
        <ele>734.7</ele>
        <time>2020-02-03T13:29:00.000Z</time>
      </trkpt>
      <trkpt lat="45.20789" lon="5.88326">
        <ele>736.02</ele>
        <time>2020-02-03T13:29:05.000Z</time>
      </trkpt>
      <trkpt lat="45.20806" lon="5.88316">
        <ele>739.51</ele>
        <time>2020-02-03T13:29:10.000Z</time>
      </trkpt>
      <trkpt lat="45.2082" lon="5.88312">
        <ele>743.93</ele>
        <time>2020-02-03T13:29:15.000Z</time>
      </trkpt>
      <trkpt lat="45.20838" lon="5.88304">
        <ele>745.53</ele>
        <time>2020-02-03T13:29:20.000Z</time>
      </trkpt>
      <trkpt lat="45.20853" lon="5.88294">
        <ele>745.19</ele>
        <time>2020-02-03T13:29:25.000Z</time>
      </trkpt>
      <trkpt lat="45.20867" lon="5.88281">
        <ele>745.84</ele>
        <time>2020-02-03T13:29:30.000Z</time>
      </trkpt>
      <trkpt lat="45.20882" lon="5.88272">
        <ele>745.12</ele>
        <time>2020-02-03T13:29:35.000Z</time>
      </trkpt>
      <trkpt lat="45.209" lon="5.88268">
        <ele>746.31</ele>
        <time>2020-02-03T13:29:40.000Z</time>
      </trkpt>
      <trkpt lat="45.20918" lon="5.8827">
        <ele>749.46</ele>
        <time>2020-02-03T13:29:45.000Z</time>
      </trkpt>
      <trkpt lat="45.20933" lon="5.88274">
        <ele>750.46</ele>
        <time>2020-02-03T13:29:50.000Z</time>
      </trkpt>
      <trkpt lat="45.2095" lon="5.88281">
        <ele>750.5</ele>
        <time>2020-02-03T13:29:55.000Z</time>
      </trkpt>
      <trkpt lat="45.20968" lon="5.88286">
        <ele>749.32</ele>
        <time>2020-02-03T13:30:00.000Z</time>
      </trkpt>
      <trkpt lat="45.20988" lon="5.8829">
        <ele>750.91</ele>
        <time>2020-02-03T13:30:05.000Z</time>
      </trkpt>
      <trkpt lat="45.21008" lon="5.88289">
        <ele>752</ele>
        <time>2020-02-03T13:30:10.000Z</time>
      </trkpt>
      <trkpt lat="45.21026" lon="5.8829">
        <ele>752.03</ele>
        <time>2020-02-03T13:30:15.000Z</time>
      </trkpt>
      <trkpt lat="45.21044" lon="5.88295">
        <ele>753.52</ele>
        <time>2020-02-03T13:30:20.000Z</time>
      </trkpt>
      <trkpt lat="45.21061" lon="5.88306">
        <ele>756.44</ele>
        <time>2020-02-03T13:30:25.000Z</time>
      </trkpt>
      <trkpt lat="45.21075" lon="5.8832">
        <ele>756.58</ele>
        <time>2020-02-03T13:30:30.000Z</time>
      </trkpt>
      <trkpt lat="45.21093" lon="5.88331">
        <ele>755.86</ele>
        <time>2020-02-03T13:30:35.000Z</time>
      </trkpt>
      <trkpt lat="45.21111" lon="5.88339">
        <ele>755.76</ele>
        <time>2020-02-03T13:30:40.000Z</time>
      </trkpt>
      <trkpt lat="45.21131" lon="5.88343">
        <ele>757.53</ele>
        <time>2020-02-03T13:30:45.000Z</time>
      </trkpt>
      <trkpt lat="45.21151" lon="5.88349">
        <ele>758.15</ele>
        <time>2020-02-03T13:30:50.000Z</time>
      </trkpt>
      <trkpt lat="45.21172" lon="5.88353">
        <ele>758.35</ele>
        <time>2020-02-03T13:30:55.000Z</time>
      </trkpt>
      <trkpt lat="45.21194" lon="5.88358">
        <ele>759.08</ele>
        <time>2020-02-03T13:31:00.000Z</time>
      </trkpt>
      <trkpt lat="45.21218" lon="5.88362">
        <ele>759.36</ele>
        <time>2020-02-03T13:31:05.000Z</time>
      </trkpt>
      <trkpt lat="45.21242" lon="5.88364">
        <ele>756.22</ele>
        <time>2020-02-03T13:31:10.000Z</time>
      </trkpt>
      <trkpt lat="45.21267" lon="5.88363">
        <ele>758.1</ele>
        <time>2020-02-03T13:31:15.000Z</time>
      </trkpt>
      <trkpt lat="45.21293" lon="5.8836">
        <ele>759.62</ele>
        <time>2020-02-03T13:31:20.000Z</time>
      </trkpt>
      <trkpt lat="45.2132" lon="5.88351">
        <ele>759.71</ele>
        <time>2020-02-03T13:31:25.000Z</time>
      </trkpt>
      <trkpt lat="45.21344" lon="5.88336">
        <ele>759.55</ele>
        <time>2020-02-03T13:31:30.000Z</time>
      </trkpt>
      <trkpt lat="45.21364" lon="5.8832">
        <ele>758.34</ele>
        <time>2020-02-03T13:31:35.000Z</time>
      </trkpt>
      <trkpt lat="45.21388" lon="5.88316">
        <ele>761.57</ele>
        <time>2020-02-03T13:31:40.000Z</time>
      </trkpt>
      <trkpt lat="45.21408" lon="5.88329">
        <ele>762.62</ele>
        <time>2020-02-03T13:31:45.000Z</time>
      </trkpt>
      <trkpt lat="45.21419" lon="5.88356">
        <ele>760.93</ele>
        <time>2020-02-03T13:31:50.000Z</time>
      </trkpt>
      <trkpt lat="45.21425" lon="5.88386">
        <ele>765.65</ele>
        <time>2020-02-03T13:31:55.000Z</time>
      </trkpt>
      <trkpt lat="45.21422" lon="5.88414">
        <ele>768.53</ele>
        <time>2020-02-03T13:32:00.000Z</time>
      </trkpt>
      <trkpt lat="45.21424" lon="5.8844">
        <ele>770.2</ele>
        <time>2020-02-03T13:32:05.000Z</time>
      </trkpt>
      <trkpt lat="45.21426" lon="5.8847">
        <ele>771.35</ele>
        <time>2020-02-03T13:32:10.000Z</time>
      </trkpt>
      <trkpt lat="45.2143" lon="5.88499">
        <ele>771.21</ele>
        <time>2020-02-03T13:32:15.000Z</time>
      </trkpt>
      <trkpt lat="45.21437" lon="5.88524">
        <ele>774.09</ele>
        <time>2020-02-03T13:32:20.000Z</time>
      </trkpt>
      <trkpt lat="45.21447" lon="5.88547">
        <ele>770.5</ele>
        <time>2020-02-03T13:32:25.000Z</time>
      </trkpt>
      <trkpt lat="45.21456" lon="5.88569">
        <ele>771.24</ele>
        <time>2020-02-03T13:32:30.000Z</time>
      </trkpt>
      <trkpt lat="45.21466" lon="5.88589">
        <ele>771.33</ele>
        <time>2020-02-03T13:32:35.000Z</time>
      </trkpt>
      <trkpt lat="45.21473" lon="5.8861">
        <ele>771.59</ele>
        <time>2020-02-03T13:32:40.000Z</time>
      </trkpt>
      <trkpt lat="45.21479" lon="5.88635">
        <ele>770.11</ele>
        <time>2020-02-03T13:32:45.000Z</time>
      </trkpt>
      <trkpt lat="45.21486" lon="5.8866">
        <ele>769.43</ele>
        <time>2020-02-03T13:32:50.000Z</time>
      </trkpt>
      <trkpt lat="45.21493" lon="5.88676">
        <ele>772.68</ele>
        <time>2020-02-03T13:32:55.000Z</time>
      </trkpt>
      <trkpt lat="45.21507" lon="5.88698">
        <ele>776.04</ele>
        <time>2020-02-03T13:33:00.000Z</time>
      </trkpt>
      <trkpt lat="45.21521" lon="5.88719">
        <ele>776.88</ele>
        <time>2020-02-03T13:33:05.000Z</time>
      </trkpt>
      <trkpt lat="45.21541" lon="5.8873">
        <ele>779.52</ele>
        <time>2020-02-03T13:33:10.000Z</time>
      </trkpt>
      <trkpt lat="45.21561" lon="5.88743">
        <ele>785.54</ele>
        <time>2020-02-03T13:33:15.000Z</time>
      </trkpt>
      <trkpt lat="45.21577" lon="5.88763">
        <ele>789.03</ele>
        <time>2020-02-03T13:33:20.000Z</time>
      </trkpt>
      <trkpt lat="45.21592" lon="5.88782">
        <ele>789.18</ele>
        <time>2020-02-03T13:33:25.000Z</time>
      </trkpt>
      <trkpt lat="45.21607" lon="5.88801">
        <ele>789.55</ele>
        <time>2020-02-03T13:33:30.000Z</time>
      </trkpt>
      <trkpt lat="45.21625" lon="5.88813">
        <ele>792.64</ele>
        <time>2020-02-03T13:33:35.000Z</time>
      </trkpt>
      <trkpt lat="45.21644" lon="5.88822">
        <ele>794.28</ele>
        <time>2020-02-03T13:33:40.000Z</time>
      </trkpt>
      <trkpt lat="45.21662" lon="5.88834">
        <ele>796.78</ele>
        <time>2020-02-03T13:33:45.000Z</time>
      </trkpt>
      <trkpt lat="45.2168" lon="5.88846">
        <ele>798.01</ele>
        <time>2020-02-03T13:33:50.000Z</time>
      </trkpt>
      <trkpt lat="45.21696" lon="5.88858">
        <ele>797.99</ele>
        <time>2020-02-03T13:33:55.000Z</time>
      </trkpt>
      <trkpt lat="45.21703" lon="5.88872">
        <ele>799.21</ele>
        <time>2020-02-03T13:34:00.000Z</time>
      </trkpt>
      <trkpt lat="45.21708" lon="5.88891">
        <ele>801.43</ele>
        <time>2020-02-03T13:34:05.000Z</time>
      </trkpt>
      <trkpt lat="45.21702" lon="5.88912">
        <ele>798.09</ele>
        <time>2020-02-03T13:34:10.000Z</time>
      </trkpt>
      <trkpt lat="45.21673" lon="5.88929">
        <ele>796.19</ele>
        <time>2020-02-03T13:34:15.000Z</time>
      </trkpt>
      <trkpt lat="45.2165" lon="5.88945">
        <ele>798.65</ele>
        <time>2020-02-03T13:34:20.000Z</time>
      </trkpt>
      <trkpt lat="45.21621" lon="5.88967">
        <ele>795.55</ele>
        <time>2020-02-03T13:34:25.000Z</time>
      </trkpt>
      <trkpt lat="45.21591" lon="5.88995">
        <ele>793.4</ele>
        <time>2020-02-03T13:34:30.000Z</time>
      </trkpt>
      <trkpt lat="45.21551" lon="5.8901">
        <ele>791.52</ele>
        <time>2020-02-03T13:34:35.000Z</time>
      </trkpt>
      <trkpt lat="45.21509" lon="5.8903">
        <ele>789.3</ele>
        <time>2020-02-03T13:34:40.000Z</time>
      </trkpt>
      <trkpt lat="45.21463" lon="5.89052">
        <ele>787.68</ele>
        <time>2020-02-03T13:34:45.000Z</time>
      </trkpt>
      <trkpt lat="45.21421" lon="5.89077">
        <ele>786.82</ele>
        <time>2020-02-03T13:34:50.000Z</time>
      </trkpt>
      <trkpt lat="45.21371" lon="5.891">
        <ele>783.05</ele>
        <time>2020-02-03T13:34:55.000Z</time>
      </trkpt>
      <trkpt lat="45.21323" lon="5.89135">
        <ele>779.99</ele>
        <time>2020-02-03T13:35:00.000Z</time>
      </trkpt>
      <trkpt lat="45.21277" lon="5.89159">
        <ele>779.99</ele>
        <time>2020-02-03T13:35:05.000Z</time>
      </trkpt>
      <trkpt lat="45.21228" lon="5.8918">
        <ele>777.81</ele>
        <time>2020-02-03T13:35:10.000Z</time>
      </trkpt>
      <trkpt lat="45.21197" lon="5.89241">
        <ele>773.43</ele>
        <time>2020-02-03T13:35:15.000Z</time>
      </trkpt>
      <trkpt lat="45.21154" lon="5.89285">
        <ele>770.97</ele>
        <time>2020-02-03T13:35:20.000Z</time>
      </trkpt>
      <trkpt lat="45.21109" lon="5.89327">
        <ele>767.63</ele>
        <time>2020-02-03T13:35:25.000Z</time>
      </trkpt>
      <trkpt lat="45.21079" lon="5.89384">
        <ele>768.26</ele>
        <time>2020-02-03T13:35:30.000Z</time>
      </trkpt>
      <trkpt lat="45.21052" lon="5.89437">
        <ele>768.06</ele>
        <time>2020-02-03T13:35:35.000Z</time>
      </trkpt>
      <trkpt lat="45.21032" lon="5.89491">
        <ele>770.48</ele>
        <time>2020-02-03T13:35:40.000Z</time>
      </trkpt>
      <trkpt lat="45.21026" lon="5.89546">
        <ele>764.92</ele>
        <time>2020-02-03T13:35:45.000Z</time>
      </trkpt>
      <trkpt lat="45.21024" lon="5.89601">
        <ele>762.22</ele>
        <time>2020-02-03T13:35:50.000Z</time>
      </trkpt>
      <trkpt lat="45.21016" lon="5.89649">
        <ele>761.76</ele>
        <time>2020-02-03T13:35:55.000Z</time>
      </trkpt>
      <trkpt lat="45.20992" lon="5.89688">
        <ele>760.42</ele>
        <time>2020-02-03T13:36:00.000Z</time>
      </trkpt>
      <trkpt lat="45.20969" lon="5.89729">
        <ele>757.22</ele>
        <time>2020-02-03T13:36:05.000Z</time>
      </trkpt>
      <trkpt lat="45.20974" lon="5.89778">
        <ele>756.68</ele>
        <time>2020-02-03T13:36:10.000Z</time>
      </trkpt>
      <trkpt lat="45.21017" lon="5.89778">
        <ele>754.66</ele>
        <time>2020-02-03T13:36:15.000Z</time>
      </trkpt>
      <trkpt lat="45.21048" lon="5.89765">
        <ele>754.02</ele>
        <time>2020-02-03T13:36:20.000Z</time>
      </trkpt>
      <trkpt lat="45.21073" lon="5.89769">
        <ele>754.2</ele>
        <time>2020-02-03T13:36:25.000Z</time>
      </trkpt>
      <trkpt lat="45.21092" lon="5.89783">
        <ele>755.58</ele>
        <time>2020-02-03T13:36:30.000Z</time>
      </trkpt>
      <trkpt lat="45.21112" lon="5.89784">
        <ele>754.49</ele>
        <time>2020-02-03T13:36:35.000Z</time>
      </trkpt>
      <trkpt lat="45.21133" lon="5.89774">
        <ele>751.81</ele>
        <time>2020-02-03T13:36:40.000Z</time>
      </trkpt>
      <trkpt lat="45.2116" lon="5.8976">
        <ele>752.59</ele>
        <time>2020-02-03T13:36:45.000Z</time>
      </trkpt>
      <trkpt lat="45.21193" lon="5.89772">
        <ele>750.63</ele>
        <time>2020-02-03T13:36:50.000Z</time>
      </trkpt>
      <trkpt lat="45.21225" lon="5.89793">
        <ele>750.07</ele>
        <time>2020-02-03T13:36:55.000Z</time>
      </trkpt>
      <trkpt lat="45.21258" lon="5.89792">
        <ele>749.2</ele>
        <time>2020-02-03T13:37:00.000Z</time>
      </trkpt>
      <trkpt lat="45.21296" lon="5.89792">
        <ele>746.52</ele>
        <time>2020-02-03T13:37:05.000Z</time>
      </trkpt>
      <trkpt lat="45.21335" lon="5.89773">
        <ele>745.49</ele>
        <time>2020-02-03T13:37:10.000Z</time>
      </trkpt>
      <trkpt lat="45.2137" lon="5.8975">
        <ele>742.51</ele>
        <time>2020-02-03T13:37:15.000Z</time>
      </trkpt>
      <trkpt lat="45.21409" lon="5.89733">
        <ele>741.11</ele>
        <time>2020-02-03T13:37:20.000Z</time>
      </trkpt>
      <trkpt lat="45.2145" lon="5.89733">
        <ele>739.18</ele>
        <time>2020-02-03T13:37:25.000Z</time>
      </trkpt>
      <trkpt lat="45.21489" lon="5.89746">
        <ele>740</ele>
        <time>2020-02-03T13:37:30.000Z</time>
      </trkpt>
      <trkpt lat="45.21525" lon="5.89764">
        <ele>737.69</ele>
        <time>2020-02-03T13:37:35.000Z</time>
      </trkpt>
      <trkpt lat="45.21561" lon="5.89787">
        <ele>738.24</ele>
        <time>2020-02-03T13:37:40.000Z</time>
      </trkpt>
      <trkpt lat="45.21595" lon="5.89811">
        <ele>735.94</ele>
        <time>2020-02-03T13:37:45.000Z</time>
      </trkpt>
      <trkpt lat="45.21631" lon="5.89835">
        <ele>735.75</ele>
        <time>2020-02-03T13:37:50.000Z</time>
      </trkpt>
      <trkpt lat="45.21663" lon="5.89864">
        <ele>732.66</ele>
        <time>2020-02-03T13:37:55.000Z</time>
      </trkpt>
      <trkpt lat="45.21695" lon="5.89893">
        <ele>731.75</ele>
        <time>2020-02-03T13:38:00.000Z</time>
      </trkpt>
      <trkpt lat="45.21725" lon="5.89924">
        <ele>729.73</ele>
        <time>2020-02-03T13:38:05.000Z</time>
      </trkpt>
      <trkpt lat="45.21764" lon="5.89944">
        <ele>728.21</ele>
        <time>2020-02-03T13:38:10.000Z</time>
      </trkpt>
      <trkpt lat="45.21797" lon="5.89963">
        <ele>726.94</ele>
        <time>2020-02-03T13:38:15.000Z</time>
      </trkpt>
      <trkpt lat="45.21824" lon="5.89975">
        <ele>727.42</ele>
        <time>2020-02-03T13:38:20.000Z</time>
      </trkpt>
      <trkpt lat="45.21852" lon="5.89986">
        <ele>727.87</ele>
        <time>2020-02-03T13:38:25.000Z</time>
      </trkpt>
      <trkpt lat="45.21881" lon="5.89999">
        <ele>727.21</ele>
        <time>2020-02-03T13:38:30.000Z</time>
      </trkpt>
      <trkpt lat="45.21909" lon="5.90023">
        <ele>726.27</ele>
        <time>2020-02-03T13:38:35.000Z</time>
      </trkpt>
      <trkpt lat="45.21938" lon="5.9005">
        <ele>723.22</ele>
        <time>2020-02-03T13:38:40.000Z</time>
      </trkpt>
      <trkpt lat="45.21931" lon="5.90101">
        <ele>722.88</ele>
        <time>2020-02-03T13:38:45.000Z</time>
      </trkpt>
      <trkpt lat="45.2193" lon="5.90155">
        <ele>723.93</ele>
        <time>2020-02-03T13:38:50.000Z</time>
      </trkpt>
      <trkpt lat="45.21964" lon="5.902">
        <ele>724.13</ele>
        <time>2020-02-03T13:38:55.000Z</time>
      </trkpt>
      <trkpt lat="45.22006" lon="5.90236">
        <ele>722.43</ele>
        <time>2020-02-03T13:39:00.000Z</time>
      </trkpt>
      <trkpt lat="45.22048" lon="5.90254">
        <ele>721.75</ele>
        <time>2020-02-03T13:39:05.000Z</time>
      </trkpt>
      <trkpt lat="45.22089" lon="5.90251">
        <ele>719.68</ele>
        <time>2020-02-03T13:39:10.000Z</time>
      </trkpt>
      <trkpt lat="45.22117" lon="5.90235">
        <ele>716.44</ele>
        <time>2020-02-03T13:39:15.000Z</time>
      </trkpt>
      <trkpt lat="45.22141" lon="5.90215">
        <ele>716.52</ele>
        <time>2020-02-03T13:39:20.000Z</time>
      </trkpt>
      <trkpt lat="45.22168" lon="5.90195">
        <ele>717.5</ele>
        <time>2020-02-03T13:39:25.000Z</time>
      </trkpt>
      <trkpt lat="45.22191" lon="5.90166">
        <ele>719.16</ele>
        <time>2020-02-03T13:39:30.000Z</time>
      </trkpt>
      <trkpt lat="45.22212" lon="5.90141">
        <ele>717.58</ele>
        <time>2020-02-03T13:39:35.000Z</time>
      </trkpt>
      <trkpt lat="45.22235" lon="5.90119">
        <ele>717.36</ele>
        <time>2020-02-03T13:39:40.000Z</time>
      </trkpt>
      <trkpt lat="45.22263" lon="5.90119">
        <ele>714.39</ele>
        <time>2020-02-03T13:39:45.000Z</time>
      </trkpt>
      <trkpt lat="45.22292" lon="5.90139">
        <ele>714.22</ele>
        <time>2020-02-03T13:39:50.000Z</time>
      </trkpt>
      <trkpt lat="45.22325" lon="5.90161">
        <ele>715.82</ele>
        <time>2020-02-03T13:39:55.000Z</time>
      </trkpt>
      <trkpt lat="45.22355" lon="5.90196">
        <ele>714.95</ele>
        <time>2020-02-03T13:40:00.000Z</time>
      </trkpt>
      <trkpt lat="45.22382" lon="5.90242">
        <ele>712.24</ele>
        <time>2020-02-03T13:40:05.000Z</time>
      </trkpt>
      <trkpt lat="45.22404" lon="5.90295">
        <ele>712.23</ele>
        <time>2020-02-03T13:40:10.000Z</time>
      </trkpt>
      <trkpt lat="45.22429" lon="5.90337">
        <ele>709.36</ele>
        <time>2020-02-03T13:40:15.000Z</time>
      </trkpt>
      <trkpt lat="45.22459" lon="5.90377">
        <ele>707.83</ele>
        <time>2020-02-03T13:40:20.000Z</time>
      </trkpt>
      <trkpt lat="45.22495" lon="5.90409">
        <ele>705.34</ele>
        <time>2020-02-03T13:40:25.000Z</time>
      </trkpt>
      <trkpt lat="45.22522" lon="5.90456">
        <ele>703.85</ele>
        <time>2020-02-03T13:40:30.000Z</time>
      </trkpt>
      <trkpt lat="45.22545" lon="5.90515">
        <ele>700.14</ele>
        <time>2020-02-03T13:40:35.000Z</time>
      </trkpt>
      <trkpt lat="45.22574" lon="5.90529">
        <ele>699.66</ele>
        <time>2020-02-03T13:40:40.000Z</time>
      </trkpt>
      <trkpt lat="45.22582" lon="5.90477">
        <ele>698.7</ele>
        <time>2020-02-03T13:40:45.000Z</time>
      </trkpt>
      <trkpt lat="45.22592" lon="5.90422">
        <ele>695.85</ele>
        <time>2020-02-03T13:40:50.000Z</time>
      </trkpt>
      <trkpt lat="45.22602" lon="5.90379">
        <ele>692.52</ele>
        <time>2020-02-03T13:40:55.000Z</time>
      </trkpt>
      <trkpt lat="45.22612" lon="5.90338">
        <ele>691.64</ele>
        <time>2020-02-03T13:41:00.000Z</time>
      </trkpt>
      <trkpt lat="45.22627" lon="5.90293">
        <ele>690.67</ele>
        <time>2020-02-03T13:41:05.000Z</time>
      </trkpt>
      <trkpt lat="45.22656" lon="5.90265">
        <ele>689.55</ele>
        <time>2020-02-03T13:41:10.000Z</time>
      </trkpt>
      <trkpt lat="45.22686" lon="5.90251">
        <ele>690</ele>
        <time>2020-02-03T13:41:15.000Z</time>
      </trkpt>
      <trkpt lat="45.22712" lon="5.90244">
        <ele>693.05</ele>
        <time>2020-02-03T13:41:20.000Z</time>
      </trkpt>
      <trkpt lat="45.22739" lon="5.90241">
        <ele>692.83</ele>
        <time>2020-02-03T13:41:25.000Z</time>
      </trkpt>
      <trkpt lat="45.22766" lon="5.90242">
        <ele>691.34</ele>
        <time>2020-02-03T13:41:30.000Z</time>
      </trkpt>
      <trkpt lat="45.22792" lon="5.90242">
        <ele>690.51</ele>
        <time>2020-02-03T13:41:35.000Z</time>
      </trkpt>
      <trkpt lat="45.22819" lon="5.9024">
        <ele>689.53</ele>
        <time>2020-02-03T13:41:40.000Z</time>
      </trkpt>
      <trkpt lat="45.22846" lon="5.90246">
        <ele>687.93</ele>
        <time>2020-02-03T13:41:45.000Z</time>
      </trkpt>
      <trkpt lat="45.22867" lon="5.90264">
        <ele>687.48</ele>
        <time>2020-02-03T13:41:50.000Z</time>
      </trkpt>
      <trkpt lat="45.22894" lon="5.90287">
        <ele>685.66</ele>
        <time>2020-02-03T13:41:55.000Z</time>
      </trkpt>
      <trkpt lat="45.22923" lon="5.90313">
        <ele>685.67</ele>
        <time>2020-02-03T13:42:00.000Z</time>
      </trkpt>
      <trkpt lat="45.22948" lon="5.90362">
        <ele>684.58</ele>
        <time>2020-02-03T13:42:05.000Z</time>
      </trkpt>
      <trkpt lat="45.22987" lon="5.90354">
        <ele>683.24</ele>
        <time>2020-02-03T13:42:10.000Z</time>
      </trkpt>
      <trkpt lat="45.2302" lon="5.9034">
        <ele>682.18</ele>
        <time>2020-02-03T13:42:15.000Z</time>
      </trkpt>
      <trkpt lat="45.23045" lon="5.90335">
        <ele>680.66</ele>
        <time>2020-02-03T13:42:20.000Z</time>
      </trkpt>
      <trkpt lat="45.23068" lon="5.90326">
        <ele>679.99</ele>
        <time>2020-02-03T13:42:25.000Z</time>
      </trkpt>
      <trkpt lat="45.23093" lon="5.90321">
        <ele>681.89</ele>
        <time>2020-02-03T13:42:30.000Z</time>
      </trkpt>
      <trkpt lat="45.2312" lon="5.9032">
        <ele>681.79</ele>
        <time>2020-02-03T13:42:35.000Z</time>
      </trkpt>
      <trkpt lat="45.23146" lon="5.90326">
        <ele>681.29</ele>
        <time>2020-02-03T13:42:40.000Z</time>
      </trkpt>
      <trkpt lat="45.23172" lon="5.90333">
        <ele>679.8</ele>
        <time>2020-02-03T13:42:45.000Z</time>
      </trkpt>
      <trkpt lat="45.23199" lon="5.90336">
        <ele>678.97</ele>
        <time>2020-02-03T13:42:50.000Z</time>
      </trkpt>
      <trkpt lat="45.23231" lon="5.90336">
        <ele>680.93</ele>
        <time>2020-02-03T13:42:55.000Z</time>
      </trkpt>
      <trkpt lat="45.2326" lon="5.90338">
        <ele>679.47</ele>
        <time>2020-02-03T13:43:00.000Z</time>
      </trkpt>
      <trkpt lat="45.23289" lon="5.90327">
        <ele>684.01</ele>
        <time>2020-02-03T13:43:05.000Z</time>
      </trkpt>
      <trkpt lat="45.23316" lon="5.90313">
        <ele>687.18</ele>
        <time>2020-02-03T13:43:10.000Z</time>
      </trkpt>
      <trkpt lat="45.23335" lon="5.90303">
        <ele>689.89</ele>
        <time>2020-02-03T13:43:15.000Z</time>
      </trkpt>
      <trkpt lat="45.23357" lon="5.90292">
        <ele>690.17</ele>
        <time>2020-02-03T13:43:20.000Z</time>
      </trkpt>
      <trkpt lat="45.23379" lon="5.90282">
        <ele>692.04</ele>
        <time>2020-02-03T13:43:25.000Z</time>
      </trkpt>
      <trkpt lat="45.23401" lon="5.90274">
        <ele>692.14</ele>
        <time>2020-02-03T13:43:30.000Z</time>
      </trkpt>
      <trkpt lat="45.2342" lon="5.9026">
        <ele>692.83</ele>
        <time>2020-02-03T13:43:35.000Z</time>
      </trkpt>
      <trkpt lat="45.23441" lon="5.90252">
        <ele>694.48</ele>
        <time>2020-02-03T13:43:40.000Z</time>
      </trkpt>
      <trkpt lat="45.23456" lon="5.9025">
        <ele>696.81</ele>
        <time>2020-02-03T13:43:45.000Z</time>
      </trkpt>
      <trkpt lat="45.23462" lon="5.90262">
        <ele>702.22</ele>
        <time>2020-02-03T13:47:05.000Z</time>
      </trkpt>
      <trkpt lat="45.23473" lon="5.90282">
        <ele>702.33</ele>
        <time>2020-02-03T13:47:10.000Z</time>
      </trkpt>
      <trkpt lat="45.23484" lon="5.90305">
        <ele>701.36</ele>
        <time>2020-02-03T13:47:15.000Z</time>
      </trkpt>
      <trkpt lat="45.23492" lon="5.90327">
        <ele>702.01</ele>
        <time>2020-02-03T13:47:20.000Z</time>
      </trkpt>
      <trkpt lat="45.23499" lon="5.90354">
        <ele>705.75</ele>
        <time>2020-02-03T13:47:25.000Z</time>
      </trkpt>
      <trkpt lat="45.23496" lon="5.90382">
        <ele>705.72</ele>
        <time>2020-02-03T13:47:30.000Z</time>
      </trkpt>
      <trkpt lat="45.23485" lon="5.90412">
        <ele>705.95</ele>
        <time>2020-02-03T13:47:35.000Z</time>
      </trkpt>
      <trkpt lat="45.2348" lon="5.90446">
        <ele>706.92</ele>
        <time>2020-02-03T13:47:40.000Z</time>
      </trkpt>
      <trkpt lat="45.23477" lon="5.9049">
        <ele>707.43</ele>
        <time>2020-02-03T13:47:45.000Z</time>
      </trkpt>
      <trkpt lat="45.23472" lon="5.90527">
        <ele>702.28</ele>
        <time>2020-02-03T13:47:50.000Z</time>
      </trkpt>
      <trkpt lat="45.23466" lon="5.90565">
        <ele>701.85</ele>
        <time>2020-02-03T13:47:55.000Z</time>
      </trkpt>
      <trkpt lat="45.23454" lon="5.90605">
        <ele>705.12</ele>
        <time>2020-02-03T13:48:00.000Z</time>
      </trkpt>
      <trkpt lat="45.23442" lon="5.90643">
        <ele>702.81</ele>
        <time>2020-02-03T13:48:05.000Z</time>
      </trkpt>
      <trkpt lat="45.23429" lon="5.9067">
        <ele>702.42</ele>
        <time>2020-02-03T13:48:10.000Z</time>
      </trkpt>
      <trkpt lat="45.23421" lon="5.90697">
        <ele>704.59</ele>
        <time>2020-02-03T13:48:15.000Z</time>
      </trkpt>
      <trkpt lat="45.23413" lon="5.90734">
        <ele>700.5</ele>
        <time>2020-02-03T13:48:20.000Z</time>
      </trkpt>
      <trkpt lat="45.23396" lon="5.9077">
        <ele>699.73</ele>
        <time>2020-02-03T13:48:25.000Z</time>
      </trkpt>
      <trkpt lat="45.23381" lon="5.90805">
        <ele>702.62</ele>
        <time>2020-02-03T13:48:30.000Z</time>
      </trkpt>
      <trkpt lat="45.23369" lon="5.90835">
        <ele>705.84</ele>
        <time>2020-02-03T13:48:35.000Z</time>
      </trkpt>
      <trkpt lat="45.23355" lon="5.90872">
        <ele>708.77</ele>
        <time>2020-02-03T13:48:40.000Z</time>
      </trkpt>
      <trkpt lat="45.23343" lon="5.90902">
        <ele>713.57</ele>
        <time>2020-02-03T13:48:45.000Z</time>
      </trkpt>
      <trkpt lat="45.23331" lon="5.9093">
        <ele>713.85</ele>
        <time>2020-02-03T13:48:50.000Z</time>
      </trkpt>
      <trkpt lat="45.23321" lon="5.90957">
        <ele>717.85</ele>
        <time>2020-02-03T13:48:55.000Z</time>
      </trkpt>
      <trkpt lat="45.23308" lon="5.90981">
        <ele>720.89</ele>
        <time>2020-02-03T13:49:00.000Z</time>
      </trkpt>
      <trkpt lat="45.23288" lon="5.91006">
        <ele>725.04</ele>
        <time>2020-02-03T13:49:05.000Z</time>
      </trkpt>
      <trkpt lat="45.23273" lon="5.91028">
        <ele>728.85</ele>
        <time>2020-02-03T13:49:10.000Z</time>
      </trkpt>
      <trkpt lat="45.23261" lon="5.91046">
        <ele>732.61</ele>
        <time>2020-02-03T13:49:15.000Z</time>
      </trkpt>
      <trkpt lat="45.23254" lon="5.91063">
        <ele>741.15</ele>
        <time>2020-02-03T13:49:20.000Z</time>
      </trkpt>
      <trkpt lat="45.23237" lon="5.91084">
        <ele>741.23</ele>
        <time>2020-02-03T13:49:25.000Z</time>
      </trkpt>
      <trkpt lat="45.23227" lon="5.91113">
        <ele>746.81</ele>
        <time>2020-02-03T13:49:30.000Z</time>
      </trkpt>
      <trkpt lat="45.23221" lon="5.91143">
        <ele>745.89</ele>
        <time>2020-02-03T13:49:35.000Z</time>
      </trkpt>
      <trkpt lat="45.23211" lon="5.91166">
        <ele>746.22</ele>
        <time>2020-02-03T13:49:40.000Z</time>
      </trkpt>
      <trkpt lat="45.23197" lon="5.91183">
        <ele>746.42</ele>
        <time>2020-02-03T13:49:45.000Z</time>
      </trkpt>
      <trkpt lat="45.23177" lon="5.91193">
        <ele>745.34</ele>
        <time>2020-02-03T13:49:50.000Z</time>
      </trkpt>
      <trkpt lat="45.23157" lon="5.91198">
        <ele>743.14</ele>
        <time>2020-02-03T13:49:55.000Z</time>
      </trkpt>
      <trkpt lat="45.23131" lon="5.9121">
        <ele>744.23</ele>
        <time>2020-02-03T13:50:00.000Z</time>
      </trkpt>
      <trkpt lat="45.23115" lon="5.91219">
        <ele>744.63</ele>
        <time>2020-02-03T13:50:05.000Z</time>
      </trkpt>
      <trkpt lat="45.23099" lon="5.91237">
        <ele>744.34</ele>
        <time>2020-02-03T13:50:10.000Z</time>
      </trkpt>
      <trkpt lat="45.23084" lon="5.91247">
        <ele>745.74</ele>
        <time>2020-02-03T13:50:15.000Z</time>
      </trkpt>
      <trkpt lat="45.23069" lon="5.91259">
        <ele>746.88</ele>
        <time>2020-02-03T13:50:20.000Z</time>
      </trkpt>
      <trkpt lat="45.23053" lon="5.91273">
        <ele>748.85</ele>
        <time>2020-02-03T13:50:25.000Z</time>
      </trkpt>
      <trkpt lat="45.23039" lon="5.91293">
        <ele>752.9</ele>
        <time>2020-02-03T13:50:30.000Z</time>
      </trkpt>
      <trkpt lat="45.23027" lon="5.91312">
        <ele>756.34</ele>
        <time>2020-02-03T13:50:35.000Z</time>
      </trkpt>
      <trkpt lat="45.23016" lon="5.91332">
        <ele>756.19</ele>
        <time>2020-02-03T13:50:40.000Z</time>
      </trkpt>
      <trkpt lat="45.23006" lon="5.91355">
        <ele>761.47</ele>
        <time>2020-02-03T13:50:45.000Z</time>
      </trkpt>
      <trkpt lat="45.22991" lon="5.91391">
        <ele>762.04</ele>
        <time>2020-02-03T13:50:50.000Z</time>
      </trkpt>
      <trkpt lat="45.22978" lon="5.9142">
        <ele>761.65</ele>
        <time>2020-02-03T13:50:55.000Z</time>
      </trkpt>
      <trkpt lat="45.2296" lon="5.91459">
        <ele>762.63</ele>
        <time>2020-02-03T13:51:00.000Z</time>
      </trkpt>
      <trkpt lat="45.22956" lon="5.91496">
        <ele>760.77</ele>
        <time>2020-02-03T13:51:05.000Z</time>
      </trkpt>
      <trkpt lat="45.22958" lon="5.91534">
        <ele>755.88</ele>
        <time>2020-02-03T13:51:10.000Z</time>
      </trkpt>
      <trkpt lat="45.2298" lon="5.91571">
        <ele>757.93</ele>
        <time>2020-02-03T13:51:15.000Z</time>
      </trkpt>
      <trkpt lat="45.22997" lon="5.91617">
        <ele>761.06</ele>
        <time>2020-02-03T13:51:20.000Z</time>
      </trkpt>
      <trkpt lat="45.22992" lon="5.91665">
        <ele>761.19</ele>
        <time>2020-02-03T13:51:25.000Z</time>
      </trkpt>
      <trkpt lat="45.22983" lon="5.91709">
        <ele>754.08</ele>
        <time>2020-02-03T13:51:30.000Z</time>
      </trkpt>
      <trkpt lat="45.22966" lon="5.91752">
        <ele>747.99</ele>
        <time>2020-02-03T13:51:35.000Z</time>
      </trkpt>
      <trkpt lat="45.22941" lon="5.918">
        <ele>746.48</ele>
        <time>2020-02-03T13:51:40.000Z</time>
      </trkpt>
      <trkpt lat="45.22914" lon="5.91844">
        <ele>747.46</ele>
        <time>2020-02-03T13:51:45.000Z</time>
      </trkpt>
      <trkpt lat="45.22887" lon="5.91876">
        <ele>743.31</ele>
        <time>2020-02-03T13:51:50.000Z</time>
      </trkpt>
      <trkpt lat="45.22861" lon="5.91907">
        <ele>743.55</ele>
        <time>2020-02-03T13:51:55.000Z</time>
      </trkpt>
      <trkpt lat="45.22828" lon="5.91926">
        <ele>737.54</ele>
        <time>2020-02-03T13:52:00.000Z</time>
      </trkpt>
      <trkpt lat="45.22795" lon="5.9194">
        <ele>735.8</ele>
        <time>2020-02-03T13:52:05.000Z</time>
      </trkpt>
      <trkpt lat="45.22769" lon="5.91966">
        <ele>737</ele>
        <time>2020-02-03T13:52:10.000Z</time>
      </trkpt>
      <trkpt lat="45.22771" lon="5.92013">
        <ele>740.38</ele>
        <time>2020-02-03T13:52:15.000Z</time>
      </trkpt>
      <trkpt lat="45.22767" lon="5.92056">
        <ele>742.76</ele>
        <time>2020-02-03T13:52:20.000Z</time>
      </trkpt>
      <trkpt lat="45.22754" lon="5.92093">
        <ele>741.3</ele>
        <time>2020-02-03T13:52:25.000Z</time>
      </trkpt>
      <trkpt lat="45.22737" lon="5.92124">
        <ele>741.6</ele>
        <time>2020-02-03T13:52:30.000Z</time>
      </trkpt>
      <trkpt lat="45.2272" lon="5.92158">
        <ele>743.43</ele>
        <time>2020-02-03T13:52:35.000Z</time>
      </trkpt>
      <trkpt lat="45.22702" lon="5.92187">
        <ele>742.7</ele>
        <time>2020-02-03T13:52:40.000Z</time>
      </trkpt>
      <trkpt lat="45.22686" lon="5.92219">
        <ele>745.42</ele>
        <time>2020-02-03T13:52:45.000Z</time>
      </trkpt>
      <trkpt lat="45.22667" lon="5.9225">
        <ele>747.45</ele>
        <time>2020-02-03T13:52:50.000Z</time>
      </trkpt>
      <trkpt lat="45.22652" lon="5.92278">
        <ele>747.3</ele>
        <time>2020-02-03T13:52:55.000Z</time>
      </trkpt>
      <trkpt lat="45.22635" lon="5.92308">
        <ele>749.16</ele>
        <time>2020-02-03T13:53:00.000Z</time>
      </trkpt>
      <trkpt lat="45.22625" lon="5.92346">
        <ele>749.76</ele>
        <time>2020-02-03T13:53:05.000Z</time>
      </trkpt>
      <trkpt lat="45.22617" lon="5.92385">
        <ele>752.95</ele>
        <time>2020-02-03T13:53:10.000Z</time>
      </trkpt>
      <trkpt lat="45.2261" lon="5.92426">
        <ele>751.66</ele>
        <time>2020-02-03T13:53:15.000Z</time>
      </trkpt>
      <trkpt lat="45.22602" lon="5.92476">
        <ele>748.87</ele>
        <time>2020-02-03T13:53:20.000Z</time>
      </trkpt>
      <trkpt lat="45.22592" lon="5.92535">
        <ele>748.66</ele>
        <time>2020-02-03T13:53:25.000Z</time>
      </trkpt>
      <trkpt lat="45.22595" lon="5.92593">
        <ele>746.35</ele>
        <time>2020-02-03T13:53:30.000Z</time>
      </trkpt>
      <trkpt lat="45.22592" lon="5.92649">
        <ele>747.18</ele>
        <time>2020-02-03T13:53:35.000Z</time>
      </trkpt>
      <trkpt lat="45.22578" lon="5.92684">
        <ele>745.43</ele>
        <time>2020-02-03T13:53:40.000Z</time>
      </trkpt>
      <trkpt lat="45.22553" lon="5.92717">
        <ele>740.34</ele>
        <time>2020-02-03T13:53:45.000Z</time>
      </trkpt>
      <trkpt lat="45.22523" lon="5.92753">
        <ele>740.14</ele>
        <time>2020-02-03T13:53:50.000Z</time>
      </trkpt>
      <trkpt lat="45.22493" lon="5.9277">
        <ele>741.04</ele>
        <time>2020-02-03T13:53:55.000Z</time>
      </trkpt>
      <trkpt lat="45.22467" lon="5.92771">
        <ele>740.1</ele>
        <time>2020-02-03T13:54:00.000Z</time>
      </trkpt>
      <trkpt lat="45.22438" lon="5.92776">
        <ele>737.53</ele>
        <time>2020-02-03T13:54:05.000Z</time>
      </trkpt>
      <trkpt lat="45.22409" lon="5.92778">
        <ele>741.62</ele>
        <time>2020-02-03T13:54:10.000Z</time>
      </trkpt>
      <trkpt lat="45.22376" lon="5.92772">
        <ele>744.54</ele>
        <time>2020-02-03T13:54:15.000Z</time>
      </trkpt>
      <trkpt lat="45.22348" lon="5.92762">
        <ele>744.73</ele>
        <time>2020-02-03T13:54:20.000Z</time>
      </trkpt>
      <trkpt lat="45.22318" lon="5.92754">
        <ele>740.3</ele>
        <time>2020-02-03T13:54:25.000Z</time>
      </trkpt>
      <trkpt lat="45.22287" lon="5.92755">
        <ele>741.14</ele>
        <time>2020-02-03T13:54:30.000Z</time>
      </trkpt>
      <trkpt lat="45.22257" lon="5.92761">
        <ele>739.82</ele>
        <time>2020-02-03T13:54:35.000Z</time>
      </trkpt>
      <trkpt lat="45.22228" lon="5.92767">
        <ele>741.35</ele>
        <time>2020-02-03T13:54:40.000Z</time>
      </trkpt>
      <trkpt lat="45.22202" lon="5.92774">
        <ele>735.29</ele>
        <time>2020-02-03T13:54:45.000Z</time>
      </trkpt>
      <trkpt lat="45.22169" lon="5.92787">
        <ele>735.93</ele>
        <time>2020-02-03T13:54:50.000Z</time>
      </trkpt>
      <trkpt lat="45.22137" lon="5.92795">
        <ele>739.98</ele>
        <time>2020-02-03T13:54:55.000Z</time>
      </trkpt>
      <trkpt lat="45.22108" lon="5.92792">
        <ele>737.93</ele>
        <time>2020-02-03T13:55:00.000Z</time>
      </trkpt>
      <trkpt lat="45.22077" lon="5.92793">
        <ele>739.11</ele>
        <time>2020-02-03T13:55:05.000Z</time>
      </trkpt>
      <trkpt lat="45.22044" lon="5.92801">
        <ele>738.01</ele>
        <time>2020-02-03T13:55:10.000Z</time>
      </trkpt>
      <trkpt lat="45.22012" lon="5.92813">
        <ele>733.61</ele>
        <time>2020-02-03T13:55:15.000Z</time>
      </trkpt>
      <trkpt lat="45.21985" lon="5.92834">
        <ele>736.61</ele>
        <time>2020-02-03T13:55:20.000Z</time>
      </trkpt>
      <trkpt lat="45.21955" lon="5.92852">
        <ele>736.72</ele>
        <time>2020-02-03T13:55:25.000Z</time>
      </trkpt>
      <trkpt lat="45.2193" lon="5.92867">
        <ele>734.28</ele>
        <time>2020-02-03T13:55:30.000Z</time>
      </trkpt>
      <trkpt lat="45.219" lon="5.92891">
        <ele>737.8</ele>
        <time>2020-02-03T13:55:35.000Z</time>
      </trkpt>
      <trkpt lat="45.21876" lon="5.9292">
        <ele>740.48</ele>
        <time>2020-02-03T13:55:40.000Z</time>
      </trkpt>
      <trkpt lat="45.21854" lon="5.92952">
        <ele>742.36</ele>
        <time>2020-02-03T13:55:45.000Z</time>
      </trkpt>
      <trkpt lat="45.21827" lon="5.92982">
        <ele>739.46</ele>
        <time>2020-02-03T13:55:50.000Z</time>
      </trkpt>
      <trkpt lat="45.21799" lon="5.93005">
        <ele>737.75</ele>
        <time>2020-02-03T13:55:55.000Z</time>
      </trkpt>
      <trkpt lat="45.21773" lon="5.93025">
        <ele>739.48</ele>
        <time>2020-02-03T13:56:00.000Z</time>
      </trkpt>
      <trkpt lat="45.21746" lon="5.9304">
        <ele>744.3</ele>
        <time>2020-02-03T13:56:05.000Z</time>
      </trkpt>
      <trkpt lat="45.21726" lon="5.93055">
        <ele>749.81</ele>
        <time>2020-02-03T13:56:10.000Z</time>
      </trkpt>
      <trkpt lat="45.21708" lon="5.93066">
        <ele>754.98</ele>
        <time>2020-02-03T13:56:15.000Z</time>
      </trkpt>
      <trkpt lat="45.21693" lon="5.93078">
        <ele>751.14</ele>
        <time>2020-02-03T13:56:20.000Z</time>
      </trkpt>
      <trkpt lat="45.21677" lon="5.93091">
        <ele>756.26</ele>
        <time>2020-02-03T13:56:25.000Z</time>
      </trkpt>
      <trkpt lat="45.21661" lon="5.93107">
        <ele>753.28</ele>
        <time>2020-02-03T13:56:30.000Z</time>
      </trkpt>
      <trkpt lat="45.21645" lon="5.93129">
        <ele>753.78</ele>
        <time>2020-02-03T13:56:35.000Z</time>
      </trkpt>
      <trkpt lat="45.21625" lon="5.93152">
        <ele>753.64</ele>
        <time>2020-02-03T13:56:40.000Z</time>
      </trkpt>
      <trkpt lat="45.21605" lon="5.93171">
        <ele>752.56</ele>
        <time>2020-02-03T13:56:45.000Z</time>
      </trkpt>
      <trkpt lat="45.21584" lon="5.93195">
        <ele>754.9</ele>
        <time>2020-02-03T13:56:50.000Z</time>
      </trkpt>
      <trkpt lat="45.21563" lon="5.9321">
        <ele>760</ele>
        <time>2020-02-03T13:56:55.000Z</time>
      </trkpt>
      <trkpt lat="45.21535" lon="5.93224">
        <ele>756.89</ele>
        <time>2020-02-03T13:57:00.000Z</time>
      </trkpt>
      <trkpt lat="45.21506" lon="5.93243">
        <ele>758.81</ele>
        <time>2020-02-03T13:57:05.000Z</time>
      </trkpt>
      <trkpt lat="45.21478" lon="5.93254">
        <ele>758.31</ele>
        <time>2020-02-03T13:57:10.000Z</time>
      </trkpt>
      <trkpt lat="45.2145" lon="5.93256">
        <ele>754.62</ele>
        <time>2020-02-03T13:57:15.000Z</time>
      </trkpt>
      <trkpt lat="45.2142" lon="5.93268">
        <ele>754.35</ele>
        <time>2020-02-03T13:57:20.000Z</time>
      </trkpt>
      <trkpt lat="45.21391" lon="5.93287">
        <ele>753.73</ele>
        <time>2020-02-03T13:57:25.000Z</time>
      </trkpt>
      <trkpt lat="45.21368" lon="5.93315">
        <ele>752.75</ele>
        <time>2020-02-03T13:57:30.000Z</time>
      </trkpt>
      <trkpt lat="45.21369" lon="5.93354">
        <ele>755.19</ele>
        <time>2020-02-03T13:57:35.000Z</time>
      </trkpt>
      <trkpt lat="45.21375" lon="5.9339">
        <ele>757.1</ele>
        <time>2020-02-03T13:57:40.000Z</time>
      </trkpt>
      <trkpt lat="45.21383" lon="5.93426">
        <ele>758.53</ele>
        <time>2020-02-03T13:57:45.000Z</time>
      </trkpt>
      <trkpt lat="45.21395" lon="5.93458">
        <ele>761.12</ele>
        <time>2020-02-03T13:57:50.000Z</time>
      </trkpt>
      <trkpt lat="45.21407" lon="5.93481">
        <ele>762.75</ele>
        <time>2020-02-03T13:57:55.000Z</time>
      </trkpt>
      <trkpt lat="45.21423" lon="5.93509">
        <ele>762.32</ele>
        <time>2020-02-03T13:58:00.000Z</time>
      </trkpt>
      <trkpt lat="45.21451" lon="5.93526">
        <ele>758.54</ele>
        <time>2020-02-03T13:58:05.000Z</time>
      </trkpt>
      <trkpt lat="45.21482" lon="5.93523">
        <ele>758.3</ele>
        <time>2020-02-03T13:58:10.000Z</time>
      </trkpt>
      <trkpt lat="45.21514" lon="5.9351">
        <ele>760.98</ele>
        <time>2020-02-03T13:58:15.000Z</time>
      </trkpt>
      <trkpt lat="45.21537" lon="5.93499">
        <ele>759.85</ele>
        <time>2020-02-03T13:58:20.000Z</time>
      </trkpt>
      <trkpt lat="45.21558" lon="5.93476">
        <ele>760.75</ele>
        <time>2020-02-03T13:58:25.000Z</time>
      </trkpt>
      <trkpt lat="45.21582" lon="5.9345">
        <ele>759.48</ele>
        <time>2020-02-03T13:58:30.000Z</time>
      </trkpt>
      <trkpt lat="45.21607" lon="5.93425">
        <ele>760.99</ele>
        <time>2020-02-03T13:58:35.000Z</time>
      </trkpt>
      <trkpt lat="45.21629" lon="5.934">
        <ele>758.76</ele>
        <time>2020-02-03T13:58:40.000Z</time>
      </trkpt>
      <trkpt lat="45.21656" lon="5.93379">
        <ele>759.79</ele>
        <time>2020-02-03T13:58:45.000Z</time>
      </trkpt>
      <trkpt lat="45.21685" lon="5.93377">
        <ele>760.15</ele>
        <time>2020-02-03T13:58:50.000Z</time>
      </trkpt>
      <trkpt lat="45.21713" lon="5.9338">
        <ele>761.84</ele>
        <time>2020-02-03T13:58:55.000Z</time>
      </trkpt>
      <trkpt lat="45.21745" lon="5.93394">
        <ele>760.84</ele>
        <time>2020-02-03T13:59:00.000Z</time>
      </trkpt>
      <trkpt lat="45.21781" lon="5.93384">
        <ele>758.29</ele>
        <time>2020-02-03T13:59:05.000Z</time>
      </trkpt>
      <trkpt lat="45.21818" lon="5.93353">
        <ele>758.44</ele>
        <time>2020-02-03T13:59:10.000Z</time>
      </trkpt>
      <trkpt lat="45.2185" lon="5.93328">
        <ele>761.08</ele>
        <time>2020-02-03T13:59:15.000Z</time>
      </trkpt>
      <trkpt lat="45.21887" lon="5.93312">
        <ele>756.5</ele>
        <time>2020-02-03T13:59:20.000Z</time>
      </trkpt>
      <trkpt lat="45.21914" lon="5.93291">
        <ele>755.78</ele>
        <time>2020-02-03T13:59:25.000Z</time>
      </trkpt>
      <trkpt lat="45.21934" lon="5.9326">
        <ele>754.23</ele>
        <time>2020-02-03T13:59:30.000Z</time>
      </trkpt>
      <trkpt lat="45.21959" lon="5.93239">
        <ele>752.61</ele>
        <time>2020-02-03T13:59:35.000Z</time>
      </trkpt>
      <trkpt lat="45.2199" lon="5.93235">
        <ele>753.2</ele>
        <time>2020-02-03T13:59:40.000Z</time>
      </trkpt>
      <trkpt lat="45.22019" lon="5.93245">
        <ele>756.09</ele>
        <time>2020-02-03T13:59:45.000Z</time>
      </trkpt>
      <trkpt lat="45.2204" lon="5.93262">
        <ele>758.27</ele>
        <time>2020-02-03T13:59:50.000Z</time>
      </trkpt>
      <trkpt lat="45.22064" lon="5.93282">
        <ele>755.91</ele>
        <time>2020-02-03T13:59:55.000Z</time>
      </trkpt>
      <trkpt lat="45.2209" lon="5.93302">
        <ele>753.36</ele>
        <time>2020-02-03T14:00:00.000Z</time>
      </trkpt>
      <trkpt lat="45.22119" lon="5.93329">
        <ele>750.08</ele>
        <time>2020-02-03T14:00:05.000Z</time>
      </trkpt>
      <trkpt lat="45.22151" lon="5.93346">
        <ele>750.49</ele>
        <time>2020-02-03T14:00:10.000Z</time>
      </trkpt>
      <trkpt lat="45.22186" lon="5.93353">
        <ele>750.45</ele>
        <time>2020-02-03T14:00:15.000Z</time>
      </trkpt>
      <trkpt lat="45.22217" lon="5.93333">
        <ele>752.87</ele>
        <time>2020-02-03T14:00:20.000Z</time>
      </trkpt>
      <trkpt lat="45.22236" lon="5.93307">
        <ele>751.68</ele>
        <time>2020-02-03T14:00:25.000Z</time>
      </trkpt>
      <trkpt lat="45.22264" lon="5.93298">
        <ele>752.02</ele>
        <time>2020-02-03T14:00:30.000Z</time>
      </trkpt>
      <trkpt lat="45.22293" lon="5.93303">
        <ele>753.18</ele>
        <time>2020-02-03T14:00:35.000Z</time>
      </trkpt>
      <trkpt lat="45.22321" lon="5.93318">
        <ele>755.08</ele>
        <time>2020-02-03T14:00:40.000Z</time>
      </trkpt>
      <trkpt lat="45.22347" lon="5.93335">
        <ele>757.96</ele>
        <time>2020-02-03T14:00:45.000Z</time>
      </trkpt>
      <trkpt lat="45.2237" lon="5.93345">
        <ele>759.36</ele>
        <time>2020-02-03T14:00:50.000Z</time>
      </trkpt>
      <trkpt lat="45.2239" lon="5.93353">
        <ele>760.6</ele>
        <time>2020-02-03T14:00:55.000Z</time>
      </trkpt>
      <trkpt lat="45.22412" lon="5.9336">
        <ele>765.8</ele>
        <time>2020-02-03T14:01:00.000Z</time>
      </trkpt>
      <trkpt lat="45.2243" lon="5.93381">
        <ele>767.4</ele>
        <time>2020-02-03T14:01:05.000Z</time>
      </trkpt>
      <trkpt lat="45.22445" lon="5.93406">
        <ele>764.28</ele>
        <time>2020-02-03T14:01:10.000Z</time>
      </trkpt>
      <trkpt lat="45.22462" lon="5.93428">
        <ele>765.52</ele>
        <time>2020-02-03T14:01:15.000Z</time>
      </trkpt>
      <trkpt lat="45.2248" lon="5.93443">
        <ele>766.32</ele>
        <time>2020-02-03T14:01:20.000Z</time>
      </trkpt>
      <trkpt lat="45.22496" lon="5.93452">
        <ele>767.53</ele>
        <time>2020-02-03T14:01:25.000Z</time>
      </trkpt>
      <trkpt lat="45.22512" lon="5.93461">
        <ele>770.12</ele>
        <time>2020-02-03T14:01:30.000Z</time>
      </trkpt>
      <trkpt lat="45.22531" lon="5.93467">
        <ele>770.75</ele>
        <time>2020-02-03T14:01:35.000Z</time>
      </trkpt>
      <trkpt lat="45.22554" lon="5.93471">
        <ele>772.33</ele>
        <time>2020-02-03T14:01:40.000Z</time>
      </trkpt>
      <trkpt lat="45.22576" lon="5.93472">
        <ele>773.09</ele>
        <time>2020-02-03T14:01:45.000Z</time>
      </trkpt>
      <trkpt lat="45.22599" lon="5.93473">
        <ele>772.61</ele>
        <time>2020-02-03T14:01:50.000Z</time>
      </trkpt>
      <trkpt lat="45.22621" lon="5.93472">
        <ele>774.32</ele>
        <time>2020-02-03T14:01:55.000Z</time>
      </trkpt>
      <trkpt lat="45.22644" lon="5.93468">
        <ele>775.25</ele>
        <time>2020-02-03T14:02:00.000Z</time>
      </trkpt>
      <trkpt lat="45.22667" lon="5.9346">
        <ele>777.72</ele>
        <time>2020-02-03T14:02:05.000Z</time>
      </trkpt>
      <trkpt lat="45.22695" lon="5.93439">
        <ele>777.06</ele>
        <time>2020-02-03T14:02:10.000Z</time>
      </trkpt>
      <trkpt lat="45.22726" lon="5.93407">
        <ele>773.85</ele>
        <time>2020-02-03T14:02:15.000Z</time>
      </trkpt>
      <trkpt lat="45.22759" lon="5.93364">
        <ele>769.01</ele>
        <time>2020-02-03T14:02:20.000Z</time>
      </trkpt>
      <trkpt lat="45.22798" lon="5.93335">
        <ele>767.44</ele>
        <time>2020-02-03T14:02:25.000Z</time>
      </trkpt>
      <trkpt lat="45.22846" lon="5.93326">
        <ele>767.67</ele>
        <time>2020-02-03T14:02:30.000Z</time>
      </trkpt>
      <trkpt lat="45.22893" lon="5.93345">
        <ele>762.93</ele>
        <time>2020-02-03T14:02:35.000Z</time>
      </trkpt>
      <trkpt lat="45.22933" lon="5.93351">
        <ele>758.3</ele>
        <time>2020-02-03T14:02:40.000Z</time>
      </trkpt>
      <trkpt lat="45.22976" lon="5.9335">
        <ele>754.24</ele>
        <time>2020-02-03T14:02:45.000Z</time>
      </trkpt>
      <trkpt lat="45.23009" lon="5.93354">
        <ele>751.79</ele>
        <time>2020-02-03T14:02:50.000Z</time>
      </trkpt>
      <trkpt lat="45.23039" lon="5.93359">
        <ele>748.77</ele>
        <time>2020-02-03T14:02:55.000Z</time>
      </trkpt>
      <trkpt lat="45.23069" lon="5.93375">
        <ele>748.79</ele>
        <time>2020-02-03T14:03:00.000Z</time>
      </trkpt>
      <trkpt lat="45.23108" lon="5.93381">
        <ele>745.98</ele>
        <time>2020-02-03T14:03:05.000Z</time>
      </trkpt>
      <trkpt lat="45.23144" lon="5.93343">
        <ele>744.12</ele>
        <time>2020-02-03T14:03:10.000Z</time>
      </trkpt>
      <trkpt lat="45.23176" lon="5.93305">
        <ele>739.51</ele>
        <time>2020-02-03T14:03:15.000Z</time>
      </trkpt>
      <trkpt lat="45.23178" lon="5.93251">
        <ele>735.36</ele>
        <time>2020-02-03T14:03:20.000Z</time>
      </trkpt>
      <trkpt lat="45.23191" lon="5.93197">
        <ele>733.93</ele>
        <time>2020-02-03T14:03:25.000Z</time>
      </trkpt>
      <trkpt lat="45.23225" lon="5.93158">
        <ele>732.16</ele>
        <time>2020-02-03T14:03:30.000Z</time>
      </trkpt>
      <trkpt lat="45.23254" lon="5.93102">
        <ele>728.97</ele>
        <time>2020-02-03T14:03:35.000Z</time>
      </trkpt>
      <trkpt lat="45.23282" lon="5.93038">
        <ele>726.06</ele>
        <time>2020-02-03T14:03:40.000Z</time>
      </trkpt>
      <trkpt lat="45.23321" lon="5.92978">
        <ele>718.96</ele>
        <time>2020-02-03T14:03:45.000Z</time>
      </trkpt>
      <trkpt lat="45.23354" lon="5.92908">
        <ele>711.83</ele>
        <time>2020-02-03T14:03:50.000Z</time>
      </trkpt>
      <trkpt lat="45.23389" lon="5.92841">
        <ele>706.13</ele>
        <time>2020-02-03T14:03:55.000Z</time>
      </trkpt>
      <trkpt lat="45.23423" lon="5.92781">
        <ele>705.06</ele>
        <time>2020-02-03T14:04:00.000Z</time>
      </trkpt>
      <trkpt lat="45.23457" lon="5.92734">
        <ele>699.21</ele>
        <time>2020-02-03T14:04:05.000Z</time>
      </trkpt>
      <trkpt lat="45.23479" lon="5.92681">
        <ele>695.79</ele>
        <time>2020-02-03T14:04:10.000Z</time>
      </trkpt>
      <trkpt lat="45.23506" lon="5.92627">
        <ele>691.08</ele>
        <time>2020-02-03T14:04:15.000Z</time>
      </trkpt>
      <trkpt lat="45.23537" lon="5.92597">
        <ele>687.63</ele>
        <time>2020-02-03T14:04:20.000Z</time>
      </trkpt>
      <trkpt lat="45.23561" lon="5.9255">
        <ele>685.37</ele>
        <time>2020-02-03T14:04:25.000Z</time>
      </trkpt>
      <trkpt lat="45.23595" lon="5.92503">
        <ele>682.41</ele>
        <time>2020-02-03T14:04:30.000Z</time>
      </trkpt>
      <trkpt lat="45.23625" lon="5.92454">
        <ele>680.31</ele>
        <time>2020-02-03T14:04:35.000Z</time>
      </trkpt>
      <trkpt lat="45.23635" lon="5.92393">
        <ele>680.14</ele>
        <time>2020-02-03T14:04:40.000Z</time>
      </trkpt>
      <trkpt lat="45.2364" lon="5.92338">
        <ele>677.36</ele>
        <time>2020-02-03T14:04:45.000Z</time>
      </trkpt>
      <trkpt lat="45.23651" lon="5.92278">
        <ele>675.52</ele>
        <time>2020-02-03T14:04:50.000Z</time>
      </trkpt>
      <trkpt lat="45.2366" lon="5.92213">
        <ele>671.41</ele>
        <time>2020-02-03T14:04:55.000Z</time>
      </trkpt>
      <trkpt lat="45.23677" lon="5.92148">
        <ele>665.06</ele>
        <time>2020-02-03T14:05:00.000Z</time>
      </trkpt>
      <trkpt lat="45.2368" lon="5.92073">
        <ele>658.13</ele>
        <time>2020-02-03T14:05:05.000Z</time>
      </trkpt>
      <trkpt lat="45.23691" lon="5.92001">
        <ele>653.4</ele>
        <time>2020-02-03T14:05:10.000Z</time>
      </trkpt>
      <trkpt lat="45.23707" lon="5.91932">
        <ele>645.51</ele>
        <time>2020-02-03T14:05:15.000Z</time>
      </trkpt>
      <trkpt lat="45.23747" lon="5.91893">
        <ele>638.58</ele>
        <time>2020-02-03T14:05:20.000Z</time>
      </trkpt>
      <trkpt lat="45.23783" lon="5.91833">
        <ele>635.74</ele>
        <time>2020-02-03T14:05:25.000Z</time>
      </trkpt>
      <trkpt lat="45.23819" lon="5.91764">
        <ele>627.54</ele>
        <time>2020-02-03T14:05:30.000Z</time>
      </trkpt>
      <trkpt lat="45.2386" lon="5.91685">
        <ele>619.76</ele>
        <time>2020-02-03T14:05:35.000Z</time>
      </trkpt>
      <trkpt lat="45.2391" lon="5.9161">
        <ele>615.85</ele>
        <time>2020-02-03T14:05:40.000Z</time>
      </trkpt>
      <trkpt lat="45.23956" lon="5.91552">
        <ele>611.97</ele>
        <time>2020-02-03T14:05:45.000Z</time>
      </trkpt>
      <trkpt lat="45.23999" lon="5.91549">
        <ele>607.94</ele>
        <time>2020-02-03T14:05:50.000Z</time>
      </trkpt>
      <trkpt lat="45.24034" lon="5.91549">
        <ele>604.35</ele>
        <time>2020-02-03T14:05:55.000Z</time>
      </trkpt>
      <trkpt lat="45.24036" lon="5.91497">
        <ele>601.3</ele>
        <time>2020-02-03T14:06:00.000Z</time>
      </trkpt>
      <trkpt lat="45.24045" lon="5.91446">
        <ele>598.76</ele>
        <time>2020-02-03T14:06:05.000Z</time>
      </trkpt>
      <trkpt lat="45.2406" lon="5.91389">
        <ele>596.88</ele>
        <time>2020-02-03T14:06:10.000Z</time>
      </trkpt>
      <trkpt lat="45.24086" lon="5.91329">
        <ele>598.1</ele>
        <time>2020-02-03T14:06:15.000Z</time>
      </trkpt>
      <trkpt lat="45.24109" lon="5.91263">
        <ele>596.52</ele>
        <time>2020-02-03T14:06:20.000Z</time>
      </trkpt>
      <trkpt lat="45.24137" lon="5.91204">
        <ele>593.06</ele>
        <time>2020-02-03T14:06:25.000Z</time>
      </trkpt>
      <trkpt lat="45.24174" lon="5.91154">
        <ele>584.54</ele>
        <time>2020-02-03T14:06:30.000Z</time>
      </trkpt>
      <trkpt lat="45.24198" lon="5.91094">
        <ele>580.46</ele>
        <time>2020-02-03T14:06:35.000Z</time>
      </trkpt>
      <trkpt lat="45.242" lon="5.91022">
        <ele>574.17</ele>
        <time>2020-02-03T14:06:40.000Z</time>
      </trkpt>
      <trkpt lat="45.24206" lon="5.90946">
        <ele>571.85</ele>
        <time>2020-02-03T14:06:45.000Z</time>
      </trkpt>
      <trkpt lat="45.24218" lon="5.90892">
        <ele>567.75</ele>
        <time>2020-02-03T14:06:50.000Z</time>
      </trkpt>
      <trkpt lat="45.2422" lon="5.90862">
        <ele>563.56</ele>
        <time>2020-02-03T14:06:55.000Z</time>
      </trkpt>
      <trkpt lat="45.24221" lon="5.90819">
        <ele>555.72</ele>
        <time>2020-02-03T14:07:00.000Z</time>
      </trkpt>
      <trkpt lat="45.24241" lon="5.90792">
        <ele>552.05</ele>
        <time>2020-02-03T14:07:05.000Z</time>
      </trkpt>
      <trkpt lat="45.2427" lon="5.90753">
        <ele>545.57</ele>
        <time>2020-02-03T14:07:10.000Z</time>
      </trkpt>
      <trkpt lat="45.24303" lon="5.90694">
        <ele>541.09</ele>
        <time>2020-02-03T14:07:15.000Z</time>
      </trkpt>
      <trkpt lat="45.24342" lon="5.90628">
        <ele>534.33</ele>
        <time>2020-02-03T14:07:20.000Z</time>
      </trkpt>
      <trkpt lat="45.24389" lon="5.90566">
        <ele>525.14</ele>
        <time>2020-02-03T14:07:25.000Z</time>
      </trkpt>
      <trkpt lat="45.24416" lon="5.90493">
        <ele>521.08</ele>
        <time>2020-02-03T14:07:30.000Z</time>
      </trkpt>
      <trkpt lat="45.24468" lon="5.90467">
        <ele>512.12</ele>
        <time>2020-02-03T14:07:35.000Z</time>
      </trkpt>
      <trkpt lat="45.24524" lon="5.90483">
        <ele>512.11</ele>
        <time>2020-02-03T14:07:40.000Z</time>
      </trkpt>
      <trkpt lat="45.24588" lon="5.90515">
        <ele>502.85</ele>
        <time>2020-02-03T14:07:45.000Z</time>
      </trkpt>
      <trkpt lat="45.24651" lon="5.9055">
        <ele>497.61</ele>
        <time>2020-02-03T14:07:50.000Z</time>
      </trkpt>
      <trkpt lat="45.24712" lon="5.90606">
        <ele>491.14</ele>
        <time>2020-02-03T14:07:55.000Z</time>
      </trkpt>
      <trkpt lat="45.24781" lon="5.90654">
        <ele>486.95</ele>
        <time>2020-02-03T14:08:00.000Z</time>
      </trkpt>
      <trkpt lat="45.24855" lon="5.90714">
        <ele>480.66</ele>
        <time>2020-02-03T14:08:05.000Z</time>
      </trkpt>
      <trkpt lat="45.24923" lon="5.9079">
        <ele>469.42</ele>
        <time>2020-02-03T14:08:10.000Z</time>
      </trkpt>
      <trkpt lat="45.24982" lon="5.90833">
        <ele>466.21</ele>
        <time>2020-02-03T14:08:15.000Z</time>
      </trkpt>
      <trkpt lat="45.2501" lon="5.90871">
        <ele>457.53</ele>
        <time>2020-02-03T14:08:20.000Z</time>
      </trkpt>
      <trkpt lat="45.25005" lon="5.90847">
        <ele>452.52</ele>
        <time>2020-02-03T14:08:25.000Z</time>
      </trkpt>
      <trkpt lat="45.24974" lon="5.90802">
        <ele>445.08</ele>
        <time>2020-02-03T14:08:30.000Z</time>
      </trkpt>
      <trkpt lat="45.24949" lon="5.90724">
        <ele>436.68</ele>
        <time>2020-02-03T14:08:35.000Z</time>
      </trkpt>
      <trkpt lat="45.24926" lon="5.90649">
        <ele>428.36</ele>
        <time>2020-02-03T14:08:40.000Z</time>
      </trkpt>
      <trkpt lat="45.24878" lon="5.90583">
        <ele>427.12</ele>
        <time>2020-02-03T14:08:45.000Z</time>
      </trkpt>
      <trkpt lat="45.24838" lon="5.90493">
        <ele>420.9</ele>
        <time>2020-02-03T14:08:50.000Z</time>
      </trkpt>
      <trkpt lat="45.24783" lon="5.90421">
        <ele>407.63</ele>
        <time>2020-02-03T14:08:55.000Z</time>
      </trkpt>
      <trkpt lat="45.24722" lon="5.90359">
        <ele>400.93</ele>
        <time>2020-02-03T14:09:00.000Z</time>
      </trkpt>
      <trkpt lat="45.24683" lon="5.90292">
        <ele>389.69</ele>
        <time>2020-02-03T14:09:05.000Z</time>
      </trkpt>
      <trkpt lat="45.24697" lon="5.90281">
        <ele>384.37</ele>
        <time>2020-02-03T14:09:10.000Z</time>
      </trkpt>
      <trkpt lat="45.24769" lon="5.90342">
        <ele>377.94</ele>
        <time>2020-02-03T14:09:18.000Z</time>
      </trkpt>
      <trkpt lat="45.2483" lon="5.90364">
        <ele>372.48</ele>
        <time>2020-02-03T14:09:23.000Z</time>
      </trkpt>
      <trkpt lat="45.24895" lon="5.90397">
        <ele>370.08</ele>
        <time>2020-02-03T14:09:28.000Z</time>
      </trkpt>
      <trkpt lat="45.24943" lon="5.90442">
        <ele>367.16</ele>
        <time>2020-02-03T14:09:33.000Z</time>
      </trkpt>
      <trkpt lat="45.24956" lon="5.90435">
        <ele>362.39</ele>
        <time>2020-02-03T14:09:38.000Z</time>
      </trkpt>
      <trkpt lat="45.24949" lon="5.90424">
        <ele>352.23</ele>
        <time>2020-02-03T14:10:03.000Z</time>
      </trkpt>
      <trkpt lat="45.2493" lon="5.90372">
        <ele>346.06</ele>
        <time>2020-02-03T14:10:08.000Z</time>
      </trkpt>
      <trkpt lat="45.249" lon="5.90308">
        <ele>338.33</ele>
        <time>2020-02-03T14:10:13.000Z</time>
      </trkpt>
      <trkpt lat="45.24856" lon="5.90281">
        <ele>336.51</ele>
        <time>2020-02-03T14:10:18.000Z</time>
      </trkpt>
      <trkpt lat="45.2481" lon="5.90258">
        <ele>328.87</ele>
        <time>2020-02-03T14:10:23.000Z</time>
      </trkpt>
      <trkpt lat="45.24763" lon="5.902">
        <ele>324.05</ele>
        <time>2020-02-03T14:10:28.000Z</time>
      </trkpt>
      <trkpt lat="45.24726" lon="5.90117">
        <ele>319.35</ele>
        <time>2020-02-03T14:10:33.000Z</time>
      </trkpt>
      <trkpt lat="45.24674" lon="5.90039">
        <ele>316.36</ele>
        <time>2020-02-03T14:10:38.000Z</time>
      </trkpt>
      <trkpt lat="45.24623" lon="5.89976">
        <ele>313.15</ele>
        <time>2020-02-03T14:10:43.000Z</time>
      </trkpt>
      <trkpt lat="45.24572" lon="5.89951">
        <ele>298.11</ele>
        <time>2020-02-03T14:10:48.000Z</time>
      </trkpt>
      <trkpt lat="45.24516" lon="5.89926">
        <ele>289.17</ele>
        <time>2020-02-03T14:10:53.000Z</time>
      </trkpt>
      <trkpt lat="45.24465" lon="5.89879">
        <ele>281.43</ele>
        <time>2020-02-03T14:10:58.000Z</time>
      </trkpt>
      <trkpt lat="45.2442" lon="5.89826">
        <ele>276.53</ele>
        <time>2020-02-03T14:11:03.000Z</time>
      </trkpt>
      <trkpt lat="45.24446" lon="5.89789">
        <ele>275.92</ele>
        <time>2020-02-03T14:11:08.000Z</time>
      </trkpt>
      <trkpt lat="45.24482" lon="5.89764">
        <ele>275.77</ele>
        <time>2020-02-03T14:11:13.000Z</time>
      </trkpt>
      <trkpt lat="45.2452" lon="5.89745">
        <ele>273.21</ele>
        <time>2020-02-03T14:11:18.000Z</time>
      </trkpt>
      <trkpt lat="45.24557" lon="5.89723">
        <ele>271.31</ele>
        <time>2020-02-03T14:11:23.000Z</time>
      </trkpt>
      <trkpt lat="45.24589" lon="5.89683">
        <ele>270.99</ele>
        <time>2020-02-03T14:11:28.000Z</time>
      </trkpt>
      <trkpt lat="45.24619" lon="5.89642">
        <ele>270.18</ele>
        <time>2020-02-03T14:11:33.000Z</time>
      </trkpt>
      <trkpt lat="45.24643" lon="5.89604">
        <ele>271.32</ele>
        <time>2020-02-03T14:11:38.000Z</time>
      </trkpt>
      <trkpt lat="45.24657" lon="5.89587">
        <ele>272.92</ele>
        <time>2020-02-03T14:11:43.000Z</time>
      </trkpt>
      <trkpt lat="45.24657" lon="5.89571">
        <ele>273.14</ele>
        <time>2020-02-03T14:11:48.000Z</time>
      </trkpt>
      <trkpt lat="45.24643" lon="5.89557">
        <ele>270.12</ele>
        <time>2020-02-03T14:11:53.000Z</time>
      </trkpt>
      <trkpt lat="45.24628" lon="5.89548">
        <ele>265.98</ele>
        <time>2020-02-03T14:11:58.000Z</time>
      </trkpt>
      <trkpt lat="45.2461" lon="5.89538">
        <ele>266.35</ele>
        <time>2020-02-03T14:12:03.000Z</time>
      </trkpt>
      <trkpt lat="45.24591" lon="5.89528">
        <ele>261.91</ele>
        <time>2020-02-03T14:12:08.000Z</time>
      </trkpt>
      <trkpt lat="45.2457" lon="5.89515">
        <ele>259.26</ele>
        <time>2020-02-03T14:12:13.000Z</time>
      </trkpt>
      <trkpt lat="45.24549" lon="5.89502">
        <ele>257.58</ele>
        <time>2020-02-03T14:12:18.000Z</time>
      </trkpt>
      <trkpt lat="45.24534" lon="5.89491">
        <ele>254.61</ele>
        <time>2020-02-03T14:12:23.000Z</time>
      </trkpt>
      <trkpt lat="45.24524" lon="5.89483">
        <ele>251.55</ele>
        <time>2020-02-03T14:12:34.000Z</time>
      </trkpt>
      <trkpt lat="45.24505" lon="5.89463">
        <ele>249.43</ele>
        <time>2020-02-03T14:12:39.000Z</time>
      </trkpt>
      <trkpt lat="45.24483" lon="5.89441">
        <ele>248.57</ele>
        <time>2020-02-03T14:12:44.000Z</time>
      </trkpt>
      <trkpt lat="45.24453" lon="5.89421">
        <ele>249.08</ele>
        <time>2020-02-03T14:12:49.000Z</time>
      </trkpt>
      <trkpt lat="45.24416" lon="5.89399">
        <ele>254.67</ele>
        <time>2020-02-03T14:12:54.000Z</time>
      </trkpt>
      <trkpt lat="45.24381" lon="5.89365">
        <ele>251.09</ele>
        <time>2020-02-03T14:12:59.000Z</time>
      </trkpt>
      <trkpt lat="45.2434" lon="5.89327">
        <ele>250.29</ele>
        <time>2020-02-03T14:13:04.000Z</time>
      </trkpt>
      <trkpt lat="45.24299" lon="5.89284">
        <ele>247.05</ele>
        <time>2020-02-03T14:13:09.000Z</time>
      </trkpt>
      <trkpt lat="45.24262" lon="5.89233">
        <ele>243.11</ele>
        <time>2020-02-03T14:13:14.000Z</time>
      </trkpt>
      <trkpt lat="45.24225" lon="5.8919">
        <ele>240.49</ele>
        <time>2020-02-03T14:13:19.000Z</time>
      </trkpt>
      <trkpt lat="45.24193" lon="5.89157">
        <ele>240.9</ele>
        <time>2020-02-03T14:13:24.000Z</time>
      </trkpt>
      <trkpt lat="45.24167" lon="5.89138">
        <ele>240.74</ele>
        <time>2020-02-03T14:13:29.000Z</time>
      </trkpt>
      <trkpt lat="45.24148" lon="5.89127">
        <ele>242.04</ele>
        <time>2020-02-03T14:13:34.000Z</time>
      </trkpt>
      <trkpt lat="45.24122" lon="5.89111">
        <ele>243</ele>
        <time>2020-02-03T14:13:39.000Z</time>
      </trkpt>
      <trkpt lat="45.24092" lon="5.89092">
        <ele>239.59</ele>
        <time>2020-02-03T14:13:44.000Z</time>
      </trkpt>
      <trkpt lat="45.24061" lon="5.89079">
        <ele>237.98</ele>
        <time>2020-02-03T14:13:49.000Z</time>
      </trkpt>
      <trkpt lat="45.24032" lon="5.8906">
        <ele>237.86</ele>
        <time>2020-02-03T14:13:54.000Z</time>
      </trkpt>
      <trkpt lat="45.24" lon="5.89036">
        <ele>238.29</ele>
        <time>2020-02-03T14:13:59.000Z</time>
      </trkpt>
      <trkpt lat="45.23973" lon="5.88997">
        <ele>239.31</ele>
        <time>2020-02-03T14:14:04.000Z</time>
      </trkpt>
      <trkpt lat="45.23946" lon="5.88957">
        <ele>237.65</ele>
        <time>2020-02-03T14:14:09.000Z</time>
      </trkpt>
      <trkpt lat="45.23919" lon="5.88922">
        <ele>235.15</ele>
        <time>2020-02-03T14:14:14.000Z</time>
      </trkpt>
      <trkpt lat="45.239" lon="5.88896">
        <ele>233.89</ele>
        <time>2020-02-03T14:14:19.000Z</time>
      </trkpt>
      <trkpt lat="45.23886" lon="5.88875">
        <ele>232.4</ele>
        <time>2020-02-03T14:14:24.000Z</time>
      </trkpt>
      <trkpt lat="45.2387" lon="5.88854">
        <ele>233.41</ele>
        <time>2020-02-03T14:14:29.000Z</time>
      </trkpt>
      <trkpt lat="45.23847" lon="5.88826">
        <ele>236.99</ele>
        <time>2020-02-03T14:14:34.000Z</time>
      </trkpt>
      <trkpt lat="45.23824" lon="5.88794">
        <ele>235.13</ele>
        <time>2020-02-03T14:14:39.000Z</time>
      </trkpt>
      <trkpt lat="45.238" lon="5.88762">
        <ele>232.64</ele>
        <time>2020-02-03T14:14:44.000Z</time>
      </trkpt>
      <trkpt lat="45.23777" lon="5.88734">
        <ele>238.58</ele>
        <time>2020-02-03T14:14:49.000Z</time>
      </trkpt>
      <trkpt lat="45.23752" lon="5.88703">
        <ele>239.02</ele>
        <time>2020-02-03T14:14:54.000Z</time>
      </trkpt>
      <trkpt lat="45.23734" lon="5.88681">
        <ele>237.47</ele>
        <time>2020-02-03T14:14:59.000Z</time>
      </trkpt>
      <trkpt lat="45.23712" lon="5.88653">
        <ele>237.74</ele>
        <time>2020-02-03T14:15:04.000Z</time>
      </trkpt>
      <trkpt lat="45.23695" lon="5.88618">
        <ele>235.46</ele>
        <time>2020-02-03T14:15:09.000Z</time>
      </trkpt>
      <trkpt lat="45.23674" lon="5.88593">
        <ele>233.78</ele>
        <time>2020-02-03T14:15:14.000Z</time>
      </trkpt>
      <trkpt lat="45.23655" lon="5.88562">
        <ele>236.36</ele>
        <time>2020-02-03T14:15:19.000Z</time>
      </trkpt>
      <trkpt lat="45.23633" lon="5.8854">
        <ele>242.38</ele>
        <time>2020-02-03T14:15:24.000Z</time>
      </trkpt>
      <trkpt lat="45.23614" lon="5.88512">
        <ele>242.5</ele>
        <time>2020-02-03T14:15:29.000Z</time>
      </trkpt>
      <trkpt lat="45.23597" lon="5.88484">
        <ele>244.25</ele>
        <time>2020-02-03T14:15:34.000Z</time>
      </trkpt>
      <trkpt lat="45.23574" lon="5.88456">
        <ele>239.77</ele>
        <time>2020-02-03T14:15:39.000Z</time>
      </trkpt>
      <trkpt lat="45.2356" lon="5.88427">
        <ele>241.99</ele>
        <time>2020-02-03T14:15:44.000Z</time>
      </trkpt>
      <trkpt lat="45.23537" lon="5.88399">
        <ele>238.97</ele>
        <time>2020-02-03T14:15:49.000Z</time>
      </trkpt>
      <trkpt lat="45.23514" lon="5.88373">
        <ele>235.28</ele>
        <time>2020-02-03T14:15:54.000Z</time>
      </trkpt>
      <trkpt lat="45.23493" lon="5.88345">
        <ele>234.11</ele>
        <time>2020-02-03T14:15:59.000Z</time>
      </trkpt>
      <trkpt lat="45.23472" lon="5.88319">
        <ele>232.31</ele>
        <time>2020-02-03T14:16:04.000Z</time>
      </trkpt>
      <trkpt lat="45.23449" lon="5.88299">
        <ele>232.43</ele>
        <time>2020-02-03T14:16:09.000Z</time>
      </trkpt>
      <trkpt lat="45.23423" lon="5.88289">
        <ele>231.45</ele>
        <time>2020-02-03T14:16:14.000Z</time>
      </trkpt>
      <trkpt lat="45.23401" lon="5.88262">
        <ele>235.71</ele>
        <time>2020-02-03T14:16:19.000Z</time>
      </trkpt>
      <trkpt lat="45.23382" lon="5.88222">
        <ele>237.3</ele>
        <time>2020-02-03T14:16:24.000Z</time>
      </trkpt>
      <trkpt lat="45.23361" lon="5.88181">
        <ele>234.96</ele>
        <time>2020-02-03T14:16:29.000Z</time>
      </trkpt>
      <trkpt lat="45.23343" lon="5.88142">
        <ele>234.34</ele>
        <time>2020-02-03T14:16:34.000Z</time>
      </trkpt>
      <trkpt lat="45.23318" lon="5.88109">
        <ele>237.01</ele>
        <time>2020-02-03T14:16:39.000Z</time>
      </trkpt>
      <trkpt lat="45.23291" lon="5.88082">
        <ele>236.47</ele>
        <time>2020-02-03T14:16:44.000Z</time>
      </trkpt>
      <trkpt lat="45.23265" lon="5.88055">
        <ele>235.08</ele>
        <time>2020-02-03T14:16:49.000Z</time>
      </trkpt>
      <trkpt lat="45.2324" lon="5.88025">
        <ele>234.16</ele>
        <time>2020-02-03T14:16:54.000Z</time>
      </trkpt>
      <trkpt lat="45.23213" lon="5.88002">
        <ele>232.7</ele>
        <time>2020-02-03T14:16:59.000Z</time>
      </trkpt>
      <trkpt lat="45.23186" lon="5.87971">
        <ele>229.87</ele>
        <time>2020-02-03T14:17:04.000Z</time>
      </trkpt>
      <trkpt lat="45.23161" lon="5.87943">
        <ele>228.26</ele>
        <time>2020-02-03T14:17:09.000Z</time>
      </trkpt>
      <trkpt lat="45.23132" lon="5.87918">
        <ele>227.13</ele>
        <time>2020-02-03T14:17:14.000Z</time>
      </trkpt>
      <trkpt lat="45.23107" lon="5.8789">
        <ele>227.55</ele>
        <time>2020-02-03T14:17:19.000Z</time>
      </trkpt>
      <trkpt lat="45.2308" lon="5.8786">
        <ele>226.64</ele>
        <time>2020-02-03T14:17:24.000Z</time>
      </trkpt>
      <trkpt lat="45.23054" lon="5.87832">
        <ele>226.62</ele>
        <time>2020-02-03T14:17:29.000Z</time>
      </trkpt>
      <trkpt lat="45.23025" lon="5.87804">
        <ele>225.65</ele>
        <time>2020-02-03T14:17:34.000Z</time>
      </trkpt>
      <trkpt lat="45.22997" lon="5.87776">
        <ele>226.5</ele>
        <time>2020-02-03T14:17:39.000Z</time>
      </trkpt>
      <trkpt lat="45.22971" lon="5.87748">
        <ele>229.39</ele>
        <time>2020-02-03T14:17:44.000Z</time>
      </trkpt>
      <trkpt lat="45.22948" lon="5.87719">
        <ele>229.69</ele>
        <time>2020-02-03T14:17:49.000Z</time>
      </trkpt>
      <trkpt lat="45.22926" lon="5.8769">
        <ele>226.26</ele>
        <time>2020-02-03T14:17:54.000Z</time>
      </trkpt>
      <trkpt lat="45.22904" lon="5.87664">
        <ele>224.85</ele>
        <time>2020-02-03T14:17:59.000Z</time>
      </trkpt>
      <trkpt lat="45.22878" lon="5.8764">
        <ele>227.45</ele>
        <time>2020-02-03T14:18:04.000Z</time>
      </trkpt>
      <trkpt lat="45.22853" lon="5.87608">
        <ele>229.63</ele>
        <time>2020-02-03T14:18:09.000Z</time>
      </trkpt>
      <trkpt lat="45.22826" lon="5.87581">
        <ele>227.17</ele>
        <time>2020-02-03T14:18:14.000Z</time>
      </trkpt>
      <trkpt lat="45.22798" lon="5.87556">
        <ele>226.79</ele>
        <time>2020-02-03T14:18:19.000Z</time>
      </trkpt>
      <trkpt lat="45.22773" lon="5.87526">
        <ele>227.23</ele>
        <time>2020-02-03T14:18:24.000Z</time>
      </trkpt>
      <trkpt lat="45.22748" lon="5.87497">
        <ele>227.44</ele>
        <time>2020-02-03T14:18:29.000Z</time>
      </trkpt>
      <trkpt lat="45.22722" lon="5.87469">
        <ele>225.66</ele>
        <time>2020-02-03T14:18:34.000Z</time>
      </trkpt>
      <trkpt lat="45.22698" lon="5.87442">
        <ele>225.67</ele>
        <time>2020-02-03T14:18:39.000Z</time>
      </trkpt>
      <trkpt lat="45.22683" lon="5.87398">
        <ele>226.03</ele>
        <time>2020-02-03T14:18:44.000Z</time>
      </trkpt>
      <trkpt lat="45.22679" lon="5.8735">
        <ele>226.22</ele>
        <time>2020-02-03T14:18:49.000Z</time>
      </trkpt>
      <trkpt lat="45.2267" lon="5.87311">
        <ele>226.52</ele>
        <time>2020-02-03T14:18:54.000Z</time>
      </trkpt>
      <trkpt lat="45.22643" lon="5.8731">
        <ele>228.75</ele>
        <time>2020-02-03T14:18:59.000Z</time>
      </trkpt>
      <trkpt lat="45.22612" lon="5.87306">
        <ele>227.25</ele>
        <time>2020-02-03T14:19:04.000Z</time>
      </trkpt>
      <trkpt lat="45.2258" lon="5.87293">
        <ele>227.13</ele>
        <time>2020-02-03T14:19:09.000Z</time>
      </trkpt>
      <trkpt lat="45.22546" lon="5.87278">
        <ele>227.93</ele>
        <time>2020-02-03T14:19:14.000Z</time>
      </trkpt>
      <trkpt lat="45.22518" lon="5.87253">
        <ele>226.77</ele>
        <time>2020-02-03T14:19:19.000Z</time>
      </trkpt>
      <trkpt lat="45.22493" lon="5.87223">
        <ele>225.93</ele>
        <time>2020-02-03T14:19:24.000Z</time>
      </trkpt>
      <trkpt lat="45.22467" lon="5.87196">
        <ele>223.04</ele>
        <time>2020-02-03T14:19:29.000Z</time>
      </trkpt>
      <trkpt lat="45.2244" lon="5.87166">
        <ele>221.55</ele>
        <time>2020-02-03T14:19:34.000Z</time>
      </trkpt>
      <trkpt lat="45.22411" lon="5.87139">
        <ele>224.88</ele>
        <time>2020-02-03T14:19:39.000Z</time>
      </trkpt>
      <trkpt lat="45.22387" lon="5.87109">
        <ele>220.49</ele>
        <time>2020-02-03T14:19:44.000Z</time>
      </trkpt>
      <trkpt lat="45.22361" lon="5.87086">
        <ele>222.97</ele>
        <time>2020-02-03T14:19:49.000Z</time>
      </trkpt>
      <trkpt lat="45.22343" lon="5.87063">
        <ele>221.33</ele>
        <time>2020-02-03T14:19:54.000Z</time>
      </trkpt>
      <trkpt lat="45.22319" lon="5.87042">
        <ele>218.5</ele>
        <time>2020-02-03T14:19:59.000Z</time>
      </trkpt>
      <trkpt lat="45.22294" lon="5.87009">
        <ele>218.81</ele>
        <time>2020-02-03T14:20:04.000Z</time>
      </trkpt>
      <trkpt lat="45.22267" lon="5.86982">
        <ele>220.65</ele>
        <time>2020-02-03T14:20:09.000Z</time>
      </trkpt>
      <trkpt lat="45.22242" lon="5.86955">
        <ele>222.67</ele>
        <time>2020-02-03T14:20:14.000Z</time>
      </trkpt>
      <trkpt lat="45.22217" lon="5.86925">
        <ele>223.86</ele>
        <time>2020-02-03T14:20:19.000Z</time>
      </trkpt>
      <trkpt lat="45.22187" lon="5.86901">
        <ele>222.97</ele>
        <time>2020-02-03T14:20:24.000Z</time>
      </trkpt>
      <trkpt lat="45.22161" lon="5.86871">
        <ele>220.55</ele>
        <time>2020-02-03T14:20:29.000Z</time>
      </trkpt>
      <trkpt lat="45.22138" lon="5.86839">
        <ele>222.84</ele>
        <time>2020-02-03T14:20:34.000Z</time>
      </trkpt>
      <trkpt lat="45.2211" lon="5.86814">
        <ele>226.58</ele>
        <time>2020-02-03T14:20:39.000Z</time>
      </trkpt>
      <trkpt lat="45.22083" lon="5.86786">
        <ele>230.04</ele>
        <time>2020-02-03T14:20:44.000Z</time>
      </trkpt>
      <trkpt lat="45.22055" lon="5.86759">
        <ele>230.59</ele>
        <time>2020-02-03T14:20:49.000Z</time>
      </trkpt>
      <trkpt lat="45.22029" lon="5.86732">
        <ele>227.56</ele>
        <time>2020-02-03T14:20:54.000Z</time>
      </trkpt>
      <trkpt lat="45.22002" lon="5.86704">
        <ele>227.19</ele>
        <time>2020-02-03T14:20:59.000Z</time>
      </trkpt>
      <trkpt lat="45.21976" lon="5.86676">
        <ele>224.4</ele>
        <time>2020-02-03T14:21:04.000Z</time>
      </trkpt>
      <trkpt lat="45.21952" lon="5.86648">
        <ele>221.68</ele>
        <time>2020-02-03T14:21:09.000Z</time>
      </trkpt>
      <trkpt lat="45.21926" lon="5.86622">
        <ele>221.83</ele>
        <time>2020-02-03T14:21:14.000Z</time>
      </trkpt>
      <trkpt lat="45.21901" lon="5.8659">
        <ele>223.03</ele>
        <time>2020-02-03T14:21:19.000Z</time>
      </trkpt>
      <trkpt lat="45.21874" lon="5.86568">
        <ele>225.22</ele>
        <time>2020-02-03T14:21:24.000Z</time>
      </trkpt>
      <trkpt lat="45.21849" lon="5.86542">
        <ele>225.58</ele>
        <time>2020-02-03T14:21:29.000Z</time>
      </trkpt>
      <trkpt lat="45.21828" lon="5.86516">
        <ele>224.88</ele>
        <time>2020-02-03T14:21:34.000Z</time>
      </trkpt>
      <trkpt lat="45.21808" lon="5.86497">
        <ele>223.84</ele>
        <time>2020-02-03T14:21:39.000Z</time>
      </trkpt>
      <trkpt lat="45.21798" lon="5.86486">
        <ele>224.14</ele>
        <time>2020-02-03T14:21:44.000Z</time>
      </trkpt>
      <trkpt lat="45.21789" lon="5.86476">
        <ele>221.06</ele>
        <time>2020-02-03T14:21:49.000Z</time>
      </trkpt>
      <trkpt lat="45.21778" lon="5.86463">
        <ele>220.39</ele>
        <time>2020-02-03T14:21:54.000Z</time>
      </trkpt>
      <trkpt lat="45.2176" lon="5.86447">
        <ele>221.26</ele>
        <time>2020-02-03T14:21:59.000Z</time>
      </trkpt>
      <trkpt lat="45.21741" lon="5.86426">
        <ele>220.7</ele>
        <time>2020-02-03T14:22:04.000Z</time>
      </trkpt>
      <trkpt lat="45.21721" lon="5.86406">
        <ele>223.91</ele>
        <time>2020-02-03T14:22:09.000Z</time>
      </trkpt>
      <trkpt lat="45.21702" lon="5.86382">
        <ele>225.39</ele>
        <time>2020-02-03T14:22:14.000Z</time>
      </trkpt>
      <trkpt lat="45.21683" lon="5.8636">
        <ele>222.14</ele>
        <time>2020-02-03T14:22:19.000Z</time>
      </trkpt>
      <trkpt lat="45.21663" lon="5.86337">
        <ele>220.96</ele>
        <time>2020-02-03T14:22:24.000Z</time>
      </trkpt>
      <trkpt lat="45.21647" lon="5.86318">
        <ele>220.82</ele>
        <time>2020-02-03T14:22:29.000Z</time>
      </trkpt>
      <trkpt lat="45.21631" lon="5.86298">
        <ele>218.95</ele>
        <time>2020-02-03T14:22:34.000Z</time>
      </trkpt>
      <trkpt lat="45.21612" lon="5.86281">
        <ele>225.84</ele>
        <time>2020-02-03T14:22:39.000Z</time>
      </trkpt>
      <trkpt lat="45.21595" lon="5.86263">
        <ele>226.42</ele>
        <time>2020-02-03T14:22:44.000Z</time>
      </trkpt>
      <trkpt lat="45.21578" lon="5.86246">
        <ele>230.13</ele>
        <time>2020-02-03T14:22:49.000Z</time>
      </trkpt>
      <trkpt lat="45.21559" lon="5.86213">
        <ele>228.44</ele>
        <time>2020-02-03T14:22:54.000Z</time>
      </trkpt>
      <trkpt lat="45.21543" lon="5.86182">
        <ele>227.38</ele>
        <time>2020-02-03T14:22:59.000Z</time>
      </trkpt>
      <trkpt lat="45.21528" lon="5.86148">
        <ele>223.73</ele>
        <time>2020-02-03T14:23:04.000Z</time>
      </trkpt>
      <trkpt lat="45.21499" lon="5.86126">
        <ele>224.28</ele>
        <time>2020-02-03T14:23:09.000Z</time>
      </trkpt>
      <trkpt lat="45.21468" lon="5.86102">
        <ele>222.66</ele>
        <time>2020-02-03T14:23:14.000Z</time>
      </trkpt>
      <trkpt lat="45.21433" lon="5.86076">
        <ele>223.45</ele>
        <time>2020-02-03T14:23:19.000Z</time>
      </trkpt>
      <trkpt lat="45.21404" lon="5.86054">
        <ele>226.12</ele>
        <time>2020-02-03T14:23:24.000Z</time>
      </trkpt>
      <trkpt lat="45.21383" lon="5.86018">
        <ele>226.68</ele>
        <time>2020-02-03T14:23:29.000Z</time>
      </trkpt>
      <trkpt lat="45.21362" lon="5.85986">
        <ele>229.42</ele>
        <time>2020-02-03T14:23:34.000Z</time>
      </trkpt>
      <trkpt lat="45.21343" lon="5.85951">
        <ele>228.57</ele>
        <time>2020-02-03T14:23:39.000Z</time>
      </trkpt>
      <trkpt lat="45.21323" lon="5.85917">
        <ele>227.46</ele>
        <time>2020-02-03T14:23:44.000Z</time>
      </trkpt>
      <trkpt lat="45.21305" lon="5.85881">
        <ele>227.18</ele>
        <time>2020-02-03T14:23:49.000Z</time>
      </trkpt>
      <trkpt lat="45.21286" lon="5.85849">
        <ele>226.2</ele>
        <time>2020-02-03T14:23:54.000Z</time>
      </trkpt>
      <trkpt lat="45.21267" lon="5.85818">
        <ele>228.19</ele>
        <time>2020-02-03T14:23:59.000Z</time>
      </trkpt>
      <trkpt lat="45.21251" lon="5.8579">
        <ele>228.03</ele>
        <time>2020-02-03T14:24:04.000Z</time>
      </trkpt>
      <trkpt lat="45.21239" lon="5.85769">
        <ele>227.14</ele>
        <time>2020-02-03T14:24:09.000Z</time>
      </trkpt>
      <trkpt lat="45.21229" lon="5.85748">
        <ele>225.69</ele>
        <time>2020-02-03T14:24:14.000Z</time>
      </trkpt>
      <trkpt lat="45.21219" lon="5.85736">
        <ele>224.47</ele>
        <time>2020-02-03T14:24:19.000Z</time>
      </trkpt>
      <trkpt lat="45.21211" lon="5.85723">
        <ele>225.54</ele>
        <time>2020-02-03T14:24:24.000Z</time>
      </trkpt>
      <trkpt lat="45.21203" lon="5.85708">
        <ele>227.14</ele>
        <time>2020-02-03T14:24:29.000Z</time>
      </trkpt>
      <trkpt lat="45.21198" lon="5.85696">
        <ele>225.24</ele>
        <time>2020-02-03T14:25:20.000Z</time>
      </trkpt>
      <trkpt lat="45.21184" lon="5.85674">
        <ele>222.42</ele>
        <time>2020-02-03T14:25:25.000Z</time>
      </trkpt>
      <trkpt lat="45.21168" lon="5.85649">
        <ele>221.26</ele>
        <time>2020-02-03T14:25:30.000Z</time>
      </trkpt>
      <trkpt lat="45.21153" lon="5.85619">
        <ele>223.49</ele>
        <time>2020-02-03T14:25:35.000Z</time>
      </trkpt>
      <trkpt lat="45.21137" lon="5.85592">
        <ele>223.5</ele>
        <time>2020-02-03T14:25:40.000Z</time>
      </trkpt>
      <trkpt lat="45.21121" lon="5.85565">
        <ele>223.56</ele>
        <time>2020-02-03T14:25:45.000Z</time>
      </trkpt>
      <trkpt lat="45.21105" lon="5.85536">
        <ele>222.36</ele>
        <time>2020-02-03T14:25:50.000Z</time>
      </trkpt>
      <trkpt lat="45.21088" lon="5.85507">
        <ele>223.21</ele>
        <time>2020-02-03T14:25:55.000Z</time>
      </trkpt>
      <trkpt lat="45.21069" lon="5.85474">
        <ele>220.07</ele>
        <time>2020-02-03T14:26:00.000Z</time>
      </trkpt>
      <trkpt lat="45.2105" lon="5.85443">
        <ele>215.86</ele>
        <time>2020-02-03T14:26:05.000Z</time>
      </trkpt>
      <trkpt lat="45.21033" lon="5.85415">
        <ele>213.6</ele>
        <time>2020-02-03T14:26:10.000Z</time>
      </trkpt>
      <trkpt lat="45.21017" lon="5.85382">
        <ele>216.87</ele>
        <time>2020-02-03T14:26:15.000Z</time>
      </trkpt>
      <trkpt lat="45.21" lon="5.85352">
        <ele>214.17</ele>
        <time>2020-02-03T14:26:20.000Z</time>
      </trkpt>
      <trkpt lat="45.20984" lon="5.85321">
        <ele>215.64</ele>
        <time>2020-02-03T14:26:25.000Z</time>
      </trkpt>
      <trkpt lat="45.20967" lon="5.85288">
        <ele>216.11</ele>
        <time>2020-02-03T14:26:30.000Z</time>
      </trkpt>
      <trkpt lat="45.20948" lon="5.85256">
        <ele>216.98</ele>
        <time>2020-02-03T14:26:35.000Z</time>
      </trkpt>
      <trkpt lat="45.20928" lon="5.85224">
        <ele>219.61</ele>
        <time>2020-02-03T14:26:40.000Z</time>
      </trkpt>
      <trkpt lat="45.2091" lon="5.85192">
        <ele>219.4</ele>
        <time>2020-02-03T14:26:45.000Z</time>
      </trkpt>
      <trkpt lat="45.20893" lon="5.85156">
        <ele>218.37</ele>
        <time>2020-02-03T14:26:50.000Z</time>
      </trkpt>
      <trkpt lat="45.2087" lon="5.85122">
        <ele>217.05</ele>
        <time>2020-02-03T14:26:55.000Z</time>
      </trkpt>
      <trkpt lat="45.20852" lon="5.85092">
        <ele>215.72</ele>
        <time>2020-02-03T14:27:00.000Z</time>
      </trkpt>
      <trkpt lat="45.20833" lon="5.85059">
        <ele>217.37</ele>
        <time>2020-02-03T14:27:05.000Z</time>
      </trkpt>
      <trkpt lat="45.20812" lon="5.85024">
        <ele>217.07</ele>
        <time>2020-02-03T14:27:10.000Z</time>
      </trkpt>
      <trkpt lat="45.20792" lon="5.84988">
        <ele>216.14</ele>
        <time>2020-02-03T14:27:15.000Z</time>
      </trkpt>
      <trkpt lat="45.20773" lon="5.84951">
        <ele>218.09</ele>
        <time>2020-02-03T14:27:20.000Z</time>
      </trkpt>
      <trkpt lat="45.20759" lon="5.84905">
        <ele>219.5</ele>
        <time>2020-02-03T14:27:25.000Z</time>
      </trkpt>
      <trkpt lat="45.20751" lon="5.84862">
        <ele>218.52</ele>
        <time>2020-02-03T14:27:30.000Z</time>
      </trkpt>
      <trkpt lat="45.20756" lon="5.84815">
        <ele>217.68</ele>
        <time>2020-02-03T14:27:35.000Z</time>
      </trkpt>
      <trkpt lat="45.20729" lon="5.84793">
        <ele>219.24</ele>
        <time>2020-02-03T14:27:40.000Z</time>
      </trkpt>
      <trkpt lat="45.207" lon="5.84788">
        <ele>220.7</ele>
        <time>2020-02-03T14:27:45.000Z</time>
      </trkpt>
      <trkpt lat="45.20675" lon="5.84784">
        <ele>222.53</ele>
        <time>2020-02-03T14:27:50.000Z</time>
      </trkpt>
      <trkpt lat="45.2066" lon="5.84765">
        <ele>223.79</ele>
        <time>2020-02-03T14:27:55.000Z</time>
      </trkpt>
      <trkpt lat="45.20645" lon="5.84741">
        <ele>220.87</ele>
        <time>2020-02-03T14:28:00.000Z</time>
      </trkpt>
      <trkpt lat="45.20629" lon="5.84719">
        <ele>221.42</ele>
        <time>2020-02-03T14:28:05.000Z</time>
      </trkpt>
      <trkpt lat="45.20616" lon="5.84692">
        <ele>220.47</ele>
        <time>2020-02-03T14:28:10.000Z</time>
      </trkpt>
      <trkpt lat="45.20602" lon="5.84666">
        <ele>223.38</ele>
        <time>2020-02-03T14:28:15.000Z</time>
      </trkpt>
      <trkpt lat="45.20588" lon="5.84642">
        <ele>225.68</ele>
        <time>2020-02-03T14:28:20.000Z</time>
      </trkpt>
      <trkpt lat="45.20575" lon="5.84614">
        <ele>228.03</ele>
        <time>2020-02-03T14:28:25.000Z</time>
      </trkpt>
      <trkpt lat="45.2056" lon="5.84592">
        <ele>227.29</ele>
        <time>2020-02-03T14:28:30.000Z</time>
      </trkpt>
      <trkpt lat="45.20546" lon="5.84564">
        <ele>228.93</ele>
        <time>2020-02-03T14:28:35.000Z</time>
      </trkpt>
      <trkpt lat="45.20529" lon="5.84538">
        <ele>228.74</ele>
        <time>2020-02-03T14:28:40.000Z</time>
      </trkpt>
      <trkpt lat="45.20516" lon="5.84513">
        <ele>227.85</ele>
        <time>2020-02-03T14:28:45.000Z</time>
      </trkpt>
      <trkpt lat="45.20501" lon="5.8449">
        <ele>226.84</ele>
        <time>2020-02-03T14:28:50.000Z</time>
      </trkpt>
      <trkpt lat="45.20486" lon="5.84459">
        <ele>226.16</ele>
        <time>2020-02-03T14:28:55.000Z</time>
      </trkpt>
      <trkpt lat="45.20472" lon="5.84432">
        <ele>226.57</ele>
        <time>2020-02-03T14:29:00.000Z</time>
      </trkpt>
      <trkpt lat="45.20455" lon="5.84406">
        <ele>229.73</ele>
        <time>2020-02-03T14:29:05.000Z</time>
      </trkpt>
      <trkpt lat="45.20439" lon="5.84382">
        <ele>227.92</ele>
        <time>2020-02-03T14:29:10.000Z</time>
      </trkpt>
      <trkpt lat="45.20423" lon="5.84358">
        <ele>230.56</ele>
        <time>2020-02-03T14:29:15.000Z</time>
      </trkpt>
      <trkpt lat="45.20412" lon="5.84331">
        <ele>231.34</ele>
        <time>2020-02-03T14:29:20.000Z</time>
      </trkpt>
      <trkpt lat="45.20396" lon="5.84306">
        <ele>232.61</ele>
        <time>2020-02-03T14:29:25.000Z</time>
      </trkpt>
      <trkpt lat="45.20381" lon="5.84283">
        <ele>236.11</ele>
        <time>2020-02-03T14:29:30.000Z</time>
      </trkpt>
      <trkpt lat="45.20369" lon="5.84262">
        <ele>234.48</ele>
        <time>2020-02-03T14:29:35.000Z</time>
      </trkpt>
      <trkpt lat="45.20352" lon="5.84235">
        <ele>236.6</ele>
        <time>2020-02-03T14:29:40.000Z</time>
      </trkpt>
      <trkpt lat="45.20338" lon="5.8421">
        <ele>236.75</ele>
        <time>2020-02-03T14:29:45.000Z</time>
      </trkpt>
      <trkpt lat="45.20326" lon="5.84186">
        <ele>239.15</ele>
        <time>2020-02-03T14:29:50.000Z</time>
      </trkpt>
      <trkpt lat="45.20312" lon="5.84156">
        <ele>235.95</ele>
        <time>2020-02-03T14:29:55.000Z</time>
      </trkpt>
      <trkpt lat="45.20298" lon="5.8414">
        <ele>236.01</ele>
        <time>2020-02-03T14:30:00.000Z</time>
      </trkpt>
      <trkpt lat="45.20284" lon="5.84114">
        <ele>240.59</ele>
        <time>2020-02-03T14:30:05.000Z</time>
      </trkpt>
      <trkpt lat="45.20276" lon="5.84086">
        <ele>240.03</ele>
        <time>2020-02-03T14:30:10.000Z</time>
      </trkpt>
      <trkpt lat="45.2025" lon="5.84067">
        <ele>240.77</ele>
        <time>2020-02-03T14:30:15.000Z</time>
      </trkpt>
      <trkpt lat="45.20232" lon="5.84046">
        <ele>240.44</ele>
        <time>2020-02-03T14:30:20.000Z</time>
      </trkpt>
      <trkpt lat="45.20205" lon="5.84031">
        <ele>242.64</ele>
        <time>2020-02-03T14:30:25.000Z</time>
      </trkpt>
      <trkpt lat="45.20178" lon="5.84017">
        <ele>248.97</ele>
        <time>2020-02-03T14:30:30.000Z</time>
      </trkpt>
      <trkpt lat="45.20157" lon="5.84007">
        <ele>249.93</ele>
        <time>2020-02-03T14:30:35.000Z</time>
      </trkpt>
      <trkpt lat="45.20147" lon="5.84002">
        <ele>249.13</ele>
        <time>2020-02-03T14:30:40.000Z</time>
      </trkpt>
      <trkpt lat="45.20138" lon="5.84018">
        <ele>251.45</ele>
        <time>2020-02-03T14:30:45.000Z</time>
      </trkpt>
      <trkpt lat="45.20123" lon="5.8404">
        <ele>251.74</ele>
        <time>2020-02-03T14:30:50.000Z</time>
      </trkpt>
      <trkpt lat="45.20113" lon="5.84061">
        <ele>253.65</ele>
        <time>2020-02-03T14:30:55.000Z</time>
      </trkpt>
      <trkpt lat="45.20107" lon="5.84084">
        <ele>256.46</ele>
        <time>2020-02-03T14:31:00.000Z</time>
      </trkpt>
      <trkpt lat="45.20111" lon="5.84098">
        <ele>263.91</ele>
        <time>2020-02-03T14:31:22.000Z</time>
      </trkpt>
      <trkpt lat="45.20109" lon="5.84123">
        <ele>261.32</ele>
        <time>2020-02-03T14:31:27.000Z</time>
      </trkpt>
      <trkpt lat="45.20101" lon="5.84144">
        <ele>260.76</ele>
        <time>2020-02-03T14:31:32.000Z</time>
      </trkpt>
      <trkpt lat="45.20088" lon="5.84165">
        <ele>260.26</ele>
        <time>2020-02-03T14:31:37.000Z</time>
      </trkpt>
      <trkpt lat="45.20063" lon="5.84184">
        <ele>256.45</ele>
        <time>2020-02-03T14:31:42.000Z</time>
      </trkpt>
      <trkpt lat="45.2004" lon="5.84199">
        <ele>254.73</ele>
        <time>2020-02-03T14:31:47.000Z</time>
      </trkpt>
      <trkpt lat="45.20019" lon="5.84214">
        <ele>257.87</ele>
        <time>2020-02-03T14:31:52.000Z</time>
      </trkpt>
      <trkpt lat="45.20002" lon="5.84229">
        <ele>257.07</ele>
        <time>2020-02-03T14:31:57.000Z</time>
      </trkpt>
      <trkpt lat="45.2" lon="5.84253">
        <ele>259.35</ele>
        <time>2020-02-03T14:32:02.000Z</time>
      </trkpt>
      <trkpt lat="45.20023" lon="5.84262">
        <ele>260.99</ele>
        <time>2020-02-03T14:32:07.000Z</time>
      </trkpt>
      <trkpt lat="45.20047" lon="5.84255">
        <ele>265.76</ele>
        <time>2020-02-03T14:32:12.000Z</time>
      </trkpt>
      <trkpt lat="45.20069" lon="5.84246">
        <ele>268.48</ele>
        <time>2020-02-03T14:32:17.000Z</time>
      </trkpt>
      <trkpt lat="45.2009" lon="5.84249">
        <ele>267.14</ele>
        <time>2020-02-03T14:32:22.000Z</time>
      </trkpt>
      <trkpt lat="45.20111" lon="5.84246">
        <ele>265.8</ele>
        <time>2020-02-03T14:32:27.000Z</time>
      </trkpt>
      <trkpt lat="45.2013" lon="5.84236">
        <ele>267.9</ele>
        <time>2020-02-03T14:32:32.000Z</time>
      </trkpt>
      <trkpt lat="45.2015" lon="5.84223">
        <ele>273.72</ele>
        <time>2020-02-03T14:32:37.000Z</time>
      </trkpt>
      <trkpt lat="45.20172" lon="5.84239">
        <ele>274.63</ele>
        <time>2020-02-03T14:32:42.000Z</time>
      </trkpt>
      <trkpt lat="45.20181" lon="5.84257">
        <ele>273.19</ele>
        <time>2020-02-03T14:32:47.000Z</time>
      </trkpt>
      <trkpt lat="45.20185" lon="5.84284">
        <ele>274.64</ele>
        <time>2020-02-03T14:32:52.000Z</time>
      </trkpt>
      <trkpt lat="45.2019" lon="5.84311">
        <ele>277.34</ele>
        <time>2020-02-03T14:32:57.000Z</time>
      </trkpt>
      <trkpt lat="45.20201" lon="5.84335">
        <ele>280.4</ele>
        <time>2020-02-03T14:33:02.000Z</time>
      </trkpt>
      <trkpt lat="45.2021" lon="5.84359">
        <ele>281.19</ele>
        <time>2020-02-03T14:33:07.000Z</time>
      </trkpt>
      <trkpt lat="45.20218" lon="5.84385">
        <ele>283.04</ele>
        <time>2020-02-03T14:33:12.000Z</time>
      </trkpt>
      <trkpt lat="45.20227" lon="5.84411">
        <ele>286.31</ele>
        <time>2020-02-03T14:33:17.000Z</time>
      </trkpt>
      <trkpt lat="45.20235" lon="5.84436">
        <ele>289.09</ele>
        <time>2020-02-03T14:33:22.000Z</time>
      </trkpt>
      <trkpt lat="45.20238" lon="5.84462">
        <ele>290.84</ele>
        <time>2020-02-03T14:33:27.000Z</time>
      </trkpt>
      <trkpt lat="45.20245" lon="5.84489">
        <ele>294.31</ele>
        <time>2020-02-03T14:33:32.000Z</time>
      </trkpt>
      <trkpt lat="45.20254" lon="5.84516">
        <ele>299.6</ele>
        <time>2020-02-03T14:33:37.000Z</time>
      </trkpt>
      <trkpt lat="45.20262" lon="5.84543">
        <ele>301.8</ele>
        <time>2020-02-03T14:33:42.000Z</time>
      </trkpt>
      <trkpt lat="45.20271" lon="5.8457">
        <ele>303.18</ele>
        <time>2020-02-03T14:33:47.000Z</time>
      </trkpt>
      <trkpt lat="45.20276" lon="5.84596">
        <ele>302.6</ele>
        <time>2020-02-03T14:33:52.000Z</time>
      </trkpt>
      <trkpt lat="45.20278" lon="5.84623">
        <ele>301.53</ele>
        <time>2020-02-03T14:33:57.000Z</time>
      </trkpt>
      <trkpt lat="45.2029" lon="5.84644">
        <ele>305.6</ele>
        <time>2020-02-03T14:34:02.000Z</time>
      </trkpt>
      <trkpt lat="45.20299" lon="5.84666">
        <ele>306</ele>
        <time>2020-02-03T14:34:07.000Z</time>
      </trkpt>
      <trkpt lat="45.20306" lon="5.84693">
        <ele>305.93</ele>
        <time>2020-02-03T14:34:12.000Z</time>
      </trkpt>
      <trkpt lat="45.20312" lon="5.84721">
        <ele>304.43</ele>
        <time>2020-02-03T14:34:17.000Z</time>
      </trkpt>
      <trkpt lat="45.20315" lon="5.84752">
        <ele>308.64</ele>
        <time>2020-02-03T14:34:22.000Z</time>
      </trkpt>
      <trkpt lat="45.20318" lon="5.8478">
        <ele>311.63</ele>
        <time>2020-02-03T14:34:27.000Z</time>
      </trkpt>
      <trkpt lat="45.20323" lon="5.84807">
        <ele>313.32</ele>
        <time>2020-02-03T14:34:32.000Z</time>
      </trkpt>
      <trkpt lat="45.20328" lon="5.84834">
        <ele>315.95</ele>
        <time>2020-02-03T14:34:37.000Z</time>
      </trkpt>
      <trkpt lat="45.20332" lon="5.84863">
        <ele>318</ele>
        <time>2020-02-03T14:34:42.000Z</time>
      </trkpt>
      <trkpt lat="45.20342" lon="5.84889">
        <ele>320.65</ele>
        <time>2020-02-03T14:34:47.000Z</time>
      </trkpt>
      <trkpt lat="45.20353" lon="5.84915">
        <ele>323.4</ele>
        <time>2020-02-03T14:34:52.000Z</time>
      </trkpt>
      <trkpt lat="45.20361" lon="5.84941">
        <ele>325.02</ele>
        <time>2020-02-03T14:34:57.000Z</time>
      </trkpt>
      <trkpt lat="45.20369" lon="5.84968">
        <ele>327.46</ele>
        <time>2020-02-03T14:35:02.000Z</time>
      </trkpt>
      <trkpt lat="45.20376" lon="5.84993">
        <ele>329.64</ele>
        <time>2020-02-03T14:35:07.000Z</time>
      </trkpt>
      <trkpt lat="45.20385" lon="5.85018">
        <ele>333</ele>
        <time>2020-02-03T14:35:12.000Z</time>
      </trkpt>
      <trkpt lat="45.20395" lon="5.85044">
        <ele>332.47</ele>
        <time>2020-02-03T14:35:17.000Z</time>
      </trkpt>
      <trkpt lat="45.20405" lon="5.85068">
        <ele>331.04</ele>
        <time>2020-02-03T14:35:22.000Z</time>
      </trkpt>
      <trkpt lat="45.20413" lon="5.85094">
        <ele>332.86</ele>
        <time>2020-02-03T14:35:27.000Z</time>
      </trkpt>
      <trkpt lat="45.20407" lon="5.85118">
        <ele>336.76</ele>
        <time>2020-02-03T14:35:32.000Z</time>
      </trkpt>
      <trkpt lat="45.20394" lon="5.85098">
        <ele>338.51</ele>
        <time>2020-02-03T14:35:37.000Z</time>
      </trkpt>
      <trkpt lat="45.20388" lon="5.85069">
        <ele>340.41</ele>
        <time>2020-02-03T14:35:42.000Z</time>
      </trkpt>
      <trkpt lat="45.20375" lon="5.85048">
        <ele>343.29</ele>
        <time>2020-02-03T14:35:47.000Z</time>
      </trkpt>
      <trkpt lat="45.20361" lon="5.85028">
        <ele>345.24</ele>
        <time>2020-02-03T14:35:52.000Z</time>
      </trkpt>
      <trkpt lat="45.20345" lon="5.85007">
        <ele>345.82</ele>
        <time>2020-02-03T14:35:57.000Z</time>
      </trkpt>
      <trkpt lat="45.20335" lon="5.84983">
        <ele>348.27</ele>
        <time>2020-02-03T14:36:02.000Z</time>
      </trkpt>
      <trkpt lat="45.20328" lon="5.84955">
        <ele>349.13</ele>
        <time>2020-02-03T14:36:07.000Z</time>
      </trkpt>
      <trkpt lat="45.20322" lon="5.84931">
        <ele>356.53</ele>
        <time>2020-02-03T14:36:12.000Z</time>
      </trkpt>
      <trkpt lat="45.2031" lon="5.84915">
        <ele>356.55</ele>
        <time>2020-02-03T14:36:17.000Z</time>
      </trkpt>
      <trkpt lat="45.20296" lon="5.84893">
        <ele>355.83</ele>
        <time>2020-02-03T14:36:22.000Z</time>
      </trkpt>
      <trkpt lat="45.20284" lon="5.84866">
        <ele>356.96</ele>
        <time>2020-02-03T14:36:27.000Z</time>
      </trkpt>
      <trkpt lat="45.20281" lon="5.84835">
        <ele>358.51</ele>
        <time>2020-02-03T14:36:32.000Z</time>
      </trkpt>
      <trkpt lat="45.20273" lon="5.84807">
        <ele>358.89</ele>
        <time>2020-02-03T14:36:37.000Z</time>
      </trkpt>
      <trkpt lat="45.20261" lon="5.84785">
        <ele>363.18</ele>
        <time>2020-02-03T14:36:42.000Z</time>
      </trkpt>
      <trkpt lat="45.20256" lon="5.84754">
        <ele>363.97</ele>
        <time>2020-02-03T14:36:47.000Z</time>
      </trkpt>
      <trkpt lat="45.2024" lon="5.8473">
        <ele>366.5</ele>
        <time>2020-02-03T14:36:52.000Z</time>
      </trkpt>
      <trkpt lat="45.20226" lon="5.84715">
        <ele>370.9</ele>
        <time>2020-02-03T14:36:57.000Z</time>
      </trkpt>
      <trkpt lat="45.20213" lon="5.84701">
        <ele>374.01</ele>
        <time>2020-02-03T14:37:02.000Z</time>
      </trkpt>
      <trkpt lat="45.20204" lon="5.84686">
        <ele>376.71</ele>
        <time>2020-02-03T14:37:07.000Z</time>
      </trkpt>
      <trkpt lat="45.20187" lon="5.8467">
        <ele>377.12</ele>
        <time>2020-02-03T14:37:12.000Z</time>
      </trkpt>
      <trkpt lat="45.2017" lon="5.84649">
        <ele>376.29</ele>
        <time>2020-02-03T14:37:17.000Z</time>
      </trkpt>
      <trkpt lat="45.2016" lon="5.8462">
        <ele>376.59</ele>
        <time>2020-02-03T14:37:22.000Z</time>
      </trkpt>
      <trkpt lat="45.20152" lon="5.84592">
        <ele>379.1</ele>
        <time>2020-02-03T14:37:27.000Z</time>
      </trkpt>
      <trkpt lat="45.20145" lon="5.84564">
        <ele>384.55</ele>
        <time>2020-02-03T14:37:32.000Z</time>
      </trkpt>
      <trkpt lat="45.20132" lon="5.8454">
        <ele>385.79</ele>
        <time>2020-02-03T14:37:37.000Z</time>
      </trkpt>
      <trkpt lat="45.20124" lon="5.84513">
        <ele>388.81</ele>
        <time>2020-02-03T14:37:42.000Z</time>
      </trkpt>
      <trkpt lat="45.20113" lon="5.84493">
        <ele>387.46</ele>
        <time>2020-02-03T14:37:47.000Z</time>
      </trkpt>
      <trkpt lat="45.20097" lon="5.84477">
        <ele>388.77</ele>
        <time>2020-02-03T14:37:52.000Z</time>
      </trkpt>
      <trkpt lat="45.20088" lon="5.84457">
        <ele>393.57</ele>
        <time>2020-02-03T14:37:57.000Z</time>
      </trkpt>
      <trkpt lat="45.20063" lon="5.84465">
        <ele>394.01</ele>
        <time>2020-02-03T14:38:02.000Z</time>
      </trkpt>
      <trkpt lat="45.20047" lon="5.84471">
        <ele>394.34</ele>
        <time>2020-02-03T14:38:07.000Z</time>
      </trkpt>
      <trkpt lat="45.20025" lon="5.84483">
        <ele>394.49</ele>
        <time>2020-02-03T14:38:12.000Z</time>
      </trkpt>
      <trkpt lat="45.20004" lon="5.84488">
        <ele>398.26</ele>
        <time>2020-02-03T14:38:17.000Z</time>
      </trkpt>
      <trkpt lat="45.19982" lon="5.84495">
        <ele>393.61</ele>
        <time>2020-02-03T14:38:22.000Z</time>
      </trkpt>
      <trkpt lat="45.19969" lon="5.84502">
        <ele>395.41</ele>
        <time>2020-02-03T14:38:27.000Z</time>
      </trkpt>
      <trkpt lat="45.19954" lon="5.84519">
        <ele>398.54</ele>
        <time>2020-02-03T14:38:32.000Z</time>
      </trkpt>
      <trkpt lat="45.19944" lon="5.84537">
        <ele>403.56</ele>
        <time>2020-02-03T14:38:37.000Z</time>
      </trkpt>
      <trkpt lat="45.19936" lon="5.84561">
        <ele>408.13</ele>
        <time>2020-02-03T14:38:42.000Z</time>
      </trkpt>
      <trkpt lat="45.19925" lon="5.84586">
        <ele>407.3</ele>
        <time>2020-02-03T14:38:47.000Z</time>
      </trkpt>
      <trkpt lat="45.19913" lon="5.84605">
        <ele>406.02</ele>
        <time>2020-02-03T14:38:52.000Z</time>
      </trkpt>
      <trkpt lat="45.19899" lon="5.84623">
        <ele>407.83</ele>
        <time>2020-02-03T14:38:57.000Z</time>
      </trkpt>
      <trkpt lat="45.19883" lon="5.84645">
        <ele>412.47</ele>
        <time>2020-02-03T14:39:02.000Z</time>
      </trkpt>
      <trkpt lat="45.19871" lon="5.84665">
        <ele>417.32</ele>
        <time>2020-02-03T14:39:07.000Z</time>
      </trkpt>
      <trkpt lat="45.19862" lon="5.84686">
        <ele>418.06</ele>
        <time>2020-02-03T14:39:12.000Z</time>
      </trkpt>
      <trkpt lat="45.19854" lon="5.84711">
        <ele>417.11</ele>
        <time>2020-02-03T14:39:17.000Z</time>
      </trkpt>
      <trkpt lat="45.19855" lon="5.84738">
        <ele>419.03</ele>
        <time>2020-02-03T14:39:22.000Z</time>
      </trkpt>
      <trkpt lat="45.19866" lon="5.84767">
        <ele>419.1</ele>
        <time>2020-02-03T14:39:27.000Z</time>
      </trkpt>
      <trkpt lat="45.19867" lon="5.84787">
        <ele>419.69</ele>
        <time>2020-02-03T14:39:32.000Z</time>
      </trkpt>
      <trkpt lat="45.19844" lon="5.84796">
        <ele>422.85</ele>
        <time>2020-02-03T14:39:37.000Z</time>
      </trkpt>
      <trkpt lat="45.19823" lon="5.84799">
        <ele>425.48</ele>
        <time>2020-02-03T14:39:42.000Z</time>
      </trkpt>
      <trkpt lat="45.19805" lon="5.84811">
        <ele>427.45</ele>
        <time>2020-02-03T14:39:47.000Z</time>
      </trkpt>
      <trkpt lat="45.19786" lon="5.84819">
        <ele>432.4</ele>
        <time>2020-02-03T14:39:52.000Z</time>
      </trkpt>
      <trkpt lat="45.19765" lon="5.84829">
        <ele>434.04</ele>
        <time>2020-02-03T14:39:57.000Z</time>
      </trkpt>
      <trkpt lat="45.19748" lon="5.84837">
        <ele>431.79</ele>
        <time>2020-02-03T14:40:02.000Z</time>
      </trkpt>
      <trkpt lat="45.19729" lon="5.84848">
        <ele>431.81</ele>
        <time>2020-02-03T14:40:07.000Z</time>
      </trkpt>
      <trkpt lat="45.19714" lon="5.84867">
        <ele>437.4</ele>
        <time>2020-02-03T14:40:12.000Z</time>
      </trkpt>
      <trkpt lat="45.19694" lon="5.84881">
        <ele>438.02</ele>
        <time>2020-02-03T14:40:17.000Z</time>
      </trkpt>
      <trkpt lat="45.19675" lon="5.84894">
        <ele>438.79</ele>
        <time>2020-02-03T14:40:22.000Z</time>
      </trkpt>
      <trkpt lat="45.19661" lon="5.84914">
        <ele>439.09</ele>
        <time>2020-02-03T14:40:27.000Z</time>
      </trkpt>
      <trkpt lat="45.19648" lon="5.84932">
        <ele>438.51</ele>
        <time>2020-02-03T14:40:32.000Z</time>
      </trkpt>
      <trkpt lat="45.19632" lon="5.84949">
        <ele>440.56</ele>
        <time>2020-02-03T14:40:37.000Z</time>
      </trkpt>
      <trkpt lat="45.19617" lon="5.84966">
        <ele>441.06</ele>
        <time>2020-02-03T14:40:42.000Z</time>
      </trkpt>
      <trkpt lat="45.19598" lon="5.84976">
        <ele>443.75</ele>
        <time>2020-02-03T14:40:47.000Z</time>
      </trkpt>
      <trkpt lat="45.19582" lon="5.84991">
        <ele>442.34</ele>
        <time>2020-02-03T14:40:52.000Z</time>
      </trkpt>
      <trkpt lat="45.19556" lon="5.85008">
        <ele>448.14</ele>
        <time>2020-02-03T14:40:57.000Z</time>
      </trkpt>
      <trkpt lat="45.19534" lon="5.85013">
        <ele>455.88</ele>
        <time>2020-02-03T14:41:02.000Z</time>
      </trkpt>
      <trkpt lat="45.19521" lon="5.85024">
        <ele>457.14</ele>
        <time>2020-02-03T14:41:07.000Z</time>
      </trkpt>
      <trkpt lat="45.19508" lon="5.8504">
        <ele>458.98</ele>
        <time>2020-02-03T14:41:12.000Z</time>
      </trkpt>
      <trkpt lat="45.19492" lon="5.85061">
        <ele>460.66</ele>
        <time>2020-02-03T14:41:17.000Z</time>
      </trkpt>
      <trkpt lat="45.19481" lon="5.85083">
        <ele>459.37</ele>
        <time>2020-02-03T14:41:22.000Z</time>
      </trkpt>
      <trkpt lat="45.1948" lon="5.85118">
        <ele>459.61</ele>
        <time>2020-02-03T14:41:27.000Z</time>
      </trkpt>
      <trkpt lat="45.19482" lon="5.85148">
        <ele>460.02</ele>
        <time>2020-02-03T14:41:32.000Z</time>
      </trkpt>
      <trkpt lat="45.19475" lon="5.85176">
        <ele>461.6</ele>
        <time>2020-02-03T14:41:37.000Z</time>
      </trkpt>
      <trkpt lat="45.19457" lon="5.85187">
        <ele>466.04</ele>
        <time>2020-02-03T14:41:42.000Z</time>
      </trkpt>
      <trkpt lat="45.19434" lon="5.8519">
        <ele>471.02</ele>
        <time>2020-02-03T14:41:47.000Z</time>
      </trkpt>
      <trkpt lat="45.19412" lon="5.85189">
        <ele>474.25</ele>
        <time>2020-02-03T14:41:52.000Z</time>
      </trkpt>
      <trkpt lat="45.19399" lon="5.85206">
        <ele>476.44</ele>
        <time>2020-02-03T14:41:57.000Z</time>
      </trkpt>
      <trkpt lat="45.19389" lon="5.85227">
        <ele>479.75</ele>
        <time>2020-02-03T14:42:02.000Z</time>
      </trkpt>
      <trkpt lat="45.19387" lon="5.85253">
        <ele>480.57</ele>
        <time>2020-02-03T14:42:07.000Z</time>
      </trkpt>
      <trkpt lat="45.19386" lon="5.85281">
        <ele>479.82</ele>
        <time>2020-02-03T14:42:12.000Z</time>
      </trkpt>
      <trkpt lat="45.19387" lon="5.8531">
        <ele>483.12</ele>
        <time>2020-02-03T14:42:17.000Z</time>
      </trkpt>
      <trkpt lat="45.19387" lon="5.85342">
        <ele>486.63</ele>
        <time>2020-02-03T14:42:22.000Z</time>
      </trkpt>
      <trkpt lat="45.19389" lon="5.8537">
        <ele>488.45</ele>
        <time>2020-02-03T14:42:27.000Z</time>
      </trkpt>
      <trkpt lat="45.19385" lon="5.85387">
        <ele>493.42</ele>
        <time>2020-02-03T14:42:32.000Z</time>
      </trkpt>
      <trkpt lat="45.19396" lon="5.85394">
        <ele>500.81</ele>
        <time>2020-02-03T14:45:40.000Z</time>
      </trkpt>
      <trkpt lat="45.19404" lon="5.85419">
        <ele>499.99</ele>
        <time>2020-02-03T14:45:45.000Z</time>
      </trkpt>
      <trkpt lat="45.19413" lon="5.85441">
        <ele>503.56</ele>
        <time>2020-02-03T14:45:50.000Z</time>
      </trkpt>
      <trkpt lat="45.19425" lon="5.8546">
        <ele>506.59</ele>
        <time>2020-02-03T14:45:55.000Z</time>
      </trkpt>
      <trkpt lat="45.19436" lon="5.8547">
        <ele>507.43</ele>
        <time>2020-02-03T14:46:00.000Z</time>
      </trkpt>
      <trkpt lat="45.19436" lon="5.85453">
        <ele>509.72</ele>
        <time>2020-02-03T14:46:05.000Z</time>
      </trkpt>
      <trkpt lat="45.19422" lon="5.85425">
        <ele>508.29</ele>
        <time>2020-02-03T14:46:10.000Z</time>
      </trkpt>
      <trkpt lat="45.19417" lon="5.8539">
        <ele>507.43</ele>
        <time>2020-02-03T14:46:15.000Z</time>
      </trkpt>
      <trkpt lat="45.19414" lon="5.85363">
        <ele>506.27</ele>
        <time>2020-02-03T14:46:20.000Z</time>
      </trkpt>
      <trkpt lat="45.19416" lon="5.85331">
        <ele>506.22</ele>
        <time>2020-02-03T14:46:25.000Z</time>
      </trkpt>
      <trkpt lat="45.19419" lon="5.85303">
        <ele>507.63</ele>
        <time>2020-02-03T14:46:30.000Z</time>
      </trkpt>
      <trkpt lat="45.19424" lon="5.85278">
        <ele>510.17</ele>
        <time>2020-02-03T14:46:35.000Z</time>
      </trkpt>
      <trkpt lat="45.1943" lon="5.8526">
        <ele>513.19</ele>
        <time>2020-02-03T14:46:40.000Z</time>
      </trkpt>
      <trkpt lat="45.19445" lon="5.85266">
        <ele>515.44</ele>
        <time>2020-02-03T14:46:45.000Z</time>
      </trkpt>
      <trkpt lat="45.19466" lon="5.85279">
        <ele>512.85</ele>
        <time>2020-02-03T14:46:50.000Z</time>
      </trkpt>
      <trkpt lat="45.19485" lon="5.85287">
        <ele>515.84</ele>
        <time>2020-02-03T14:46:55.000Z</time>
      </trkpt>
      <trkpt lat="45.195" lon="5.85294">
        <ele>517.01</ele>
        <time>2020-02-03T14:47:00.000Z</time>
      </trkpt>
      <trkpt lat="45.19518" lon="5.85299">
        <ele>518.11</ele>
        <time>2020-02-03T14:47:05.000Z</time>
      </trkpt>
      <trkpt lat="45.19536" lon="5.85301">
        <ele>520.88</ele>
        <time>2020-02-03T14:47:10.000Z</time>
      </trkpt>
      <trkpt lat="45.19547" lon="5.85297">
        <ele>524.33</ele>
        <time>2020-02-03T14:47:16.000Z</time>
      </trkpt>
      <trkpt lat="45.1956" lon="5.85275">
        <ele>527.17</ele>
        <time>2020-02-03T14:47:21.000Z</time>
      </trkpt>
      <trkpt lat="45.19567" lon="5.85249">
        <ele>526.88</ele>
        <time>2020-02-03T14:47:26.000Z</time>
      </trkpt>
      <trkpt lat="45.1957" lon="5.85227">
        <ele>529.72</ele>
        <time>2020-02-03T14:47:31.000Z</time>
      </trkpt>
      <trkpt lat="45.19574" lon="5.85207">
        <ele>526.99</ele>
        <time>2020-02-03T14:47:36.000Z</time>
      </trkpt>
      <trkpt lat="45.19588" lon="5.85196">
        <ele>529.23</ele>
        <time>2020-02-03T14:47:41.000Z</time>
      </trkpt>
      <trkpt lat="45.19603" lon="5.85205">
        <ele>534.12</ele>
        <time>2020-02-03T14:47:46.000Z</time>
      </trkpt>
      <trkpt lat="45.19614" lon="5.85224">
        <ele>537.01</ele>
        <time>2020-02-03T14:47:51.000Z</time>
      </trkpt>
      <trkpt lat="45.19626" lon="5.85242">
        <ele>539.36</ele>
        <time>2020-02-03T14:47:56.000Z</time>
      </trkpt>
      <trkpt lat="45.19643" lon="5.85256">
        <ele>538.47</ele>
        <time>2020-02-03T14:48:01.000Z</time>
      </trkpt>
      <trkpt lat="45.19661" lon="5.85258">
        <ele>538.96</ele>
        <time>2020-02-03T14:48:06.000Z</time>
      </trkpt>
      <trkpt lat="45.19674" lon="5.8526">
        <ele>543.51</ele>
        <time>2020-02-03T14:48:11.000Z</time>
      </trkpt>
      <trkpt lat="45.19686" lon="5.85269">
        <ele>549.28</ele>
        <time>2020-02-03T14:48:16.000Z</time>
      </trkpt>
      <trkpt lat="45.19696" lon="5.85281">
        <ele>549.61</ele>
        <time>2020-02-03T14:48:21.000Z</time>
      </trkpt>
      <trkpt lat="45.19709" lon="5.8529">
        <ele>551.48</ele>
        <time>2020-02-03T14:48:26.000Z</time>
      </trkpt>
      <trkpt lat="45.19721" lon="5.85302">
        <ele>553.89</ele>
        <time>2020-02-03T14:48:31.000Z</time>
      </trkpt>
      <trkpt lat="45.19731" lon="5.85313">
        <ele>554.02</ele>
        <time>2020-02-03T14:48:36.000Z</time>
      </trkpt>
      <trkpt lat="45.19739" lon="5.85328">
        <ele>554.76</ele>
        <time>2020-02-03T14:48:41.000Z</time>
      </trkpt>
      <trkpt lat="45.19749" lon="5.85346">
        <ele>560.22</ele>
        <time>2020-02-03T14:48:46.000Z</time>
      </trkpt>
      <trkpt lat="45.19763" lon="5.85364">
        <ele>560.62</ele>
        <time>2020-02-03T14:48:51.000Z</time>
      </trkpt>
      <trkpt lat="45.19774" lon="5.85383">
        <ele>563.92</ele>
        <time>2020-02-03T14:48:56.000Z</time>
      </trkpt>
      <trkpt lat="45.19783" lon="5.85405">
        <ele>568.55</ele>
        <time>2020-02-03T14:49:01.000Z</time>
      </trkpt>
      <trkpt lat="45.19796" lon="5.85423">
        <ele>571.45</ele>
        <time>2020-02-03T14:49:06.000Z</time>
      </trkpt>
      <trkpt lat="45.19811" lon="5.85436">
        <ele>571.65</ele>
        <time>2020-02-03T14:49:11.000Z</time>
      </trkpt>
      <trkpt lat="45.19829" lon="5.85441">
        <ele>573.58</ele>
        <time>2020-02-03T14:49:16.000Z</time>
      </trkpt>
      <trkpt lat="45.19841" lon="5.85455">
        <ele>575.39</ele>
        <time>2020-02-03T14:49:21.000Z</time>
      </trkpt>
      <trkpt lat="45.19824" lon="5.8546">
        <ele>574.63</ele>
        <time>2020-02-03T14:49:26.000Z</time>
      </trkpt>
      <trkpt lat="45.19804" lon="5.85452">
        <ele>578.26</ele>
        <time>2020-02-03T14:49:31.000Z</time>
      </trkpt>
      <trkpt lat="45.19786" lon="5.85449">
        <ele>581.88</ele>
        <time>2020-02-03T14:49:36.000Z</time>
      </trkpt>
      <trkpt lat="45.19768" lon="5.85448">
        <ele>583.54</ele>
        <time>2020-02-03T14:49:41.000Z</time>
      </trkpt>
      <trkpt lat="45.19751" lon="5.85443">
        <ele>585.78</ele>
        <time>2020-02-03T14:49:46.000Z</time>
      </trkpt>
      <trkpt lat="45.19734" lon="5.85434">
        <ele>587.62</ele>
        <time>2020-02-03T14:49:51.000Z</time>
      </trkpt>
      <trkpt lat="45.19717" lon="5.85428">
        <ele>590.48</ele>
        <time>2020-02-03T14:49:56.000Z</time>
      </trkpt>
      <trkpt lat="45.197" lon="5.85427">
        <ele>592.4</ele>
        <time>2020-02-03T14:50:01.000Z</time>
      </trkpt>
      <trkpt lat="45.19683" lon="5.85431">
        <ele>590.39</ele>
        <time>2020-02-03T14:50:06.000Z</time>
      </trkpt>
      <trkpt lat="45.19666" lon="5.85435">
        <ele>593.23</ele>
        <time>2020-02-03T14:50:11.000Z</time>
      </trkpt>
      <trkpt lat="45.19648" lon="5.85436">
        <ele>592.69</ele>
        <time>2020-02-03T14:50:16.000Z</time>
      </trkpt>
      <trkpt lat="45.19631" lon="5.85433">
        <ele>596.81</ele>
        <time>2020-02-03T14:50:21.000Z</time>
      </trkpt>
      <trkpt lat="45.19616" lon="5.85446">
        <ele>595.86</ele>
        <time>2020-02-03T14:50:26.000Z</time>
      </trkpt>
      <trkpt lat="45.19613" lon="5.85469">
        <ele>597.03</ele>
        <time>2020-02-03T14:50:31.000Z</time>
      </trkpt>
      <trkpt lat="45.1962" lon="5.85494">
        <ele>597.71</ele>
        <time>2020-02-03T14:50:36.000Z</time>
      </trkpt>
      <trkpt lat="45.19627" lon="5.85517">
        <ele>600.04</ele>
        <time>2020-02-03T14:50:41.000Z</time>
      </trkpt>
      <trkpt lat="45.19629" lon="5.85544">
        <ele>604.43</ele>
        <time>2020-02-03T14:50:46.000Z</time>
      </trkpt>
      <trkpt lat="45.1963" lon="5.85567">
        <ele>605.05</ele>
        <time>2020-02-03T14:50:51.000Z</time>
      </trkpt>
      <trkpt lat="45.19628" lon="5.8559">
        <ele>606.45</ele>
        <time>2020-02-03T14:50:56.000Z</time>
      </trkpt>
      <trkpt lat="45.19627" lon="5.85614">
        <ele>605.18</ele>
        <time>2020-02-03T14:51:01.000Z</time>
      </trkpt>
      <trkpt lat="45.19628" lon="5.85638">
        <ele>606.42</ele>
        <time>2020-02-03T14:51:06.000Z</time>
      </trkpt>
      <trkpt lat="45.19634" lon="5.85661">
        <ele>607.29</ele>
        <time>2020-02-03T14:51:11.000Z</time>
      </trkpt>
      <trkpt lat="45.19637" lon="5.85674">
        <ele>605.17</ele>
        <time>2020-02-03T14:51:16.000Z</time>
      </trkpt>
      <trkpt lat="45.19648" lon="5.85691">
        <ele>608.36</ele>
        <time>2020-02-03T14:51:42.000Z</time>
      </trkpt>
      <trkpt lat="45.19662" lon="5.85727">
        <ele>603.34</ele>
        <time>2020-02-03T14:51:47.000Z</time>
      </trkpt>
      <trkpt lat="45.19671" lon="5.85771">
        <ele>602.89</ele>
        <time>2020-02-03T14:51:52.000Z</time>
      </trkpt>
      <trkpt lat="45.19676" lon="5.85815">
        <ele>602.1</ele>
        <time>2020-02-03T14:51:57.000Z</time>
      </trkpt>
      <trkpt lat="45.19678" lon="5.85846">
        <ele>601.72</ele>
        <time>2020-02-03T14:52:02.000Z</time>
      </trkpt>
      <trkpt lat="45.19674" lon="5.85877">
        <ele>601.38</ele>
        <time>2020-02-03T14:52:07.000Z</time>
      </trkpt>
      <trkpt lat="45.19655" lon="5.85877">
        <ele>600.34</ele>
        <time>2020-02-03T14:52:12.000Z</time>
      </trkpt>
      <trkpt lat="45.19637" lon="5.85872">
        <ele>599.64</ele>
        <time>2020-02-03T14:52:17.000Z</time>
      </trkpt>
      <trkpt lat="45.19619" lon="5.85871">
        <ele>603.49</ele>
        <time>2020-02-03T14:52:22.000Z</time>
      </trkpt>
      <trkpt lat="45.19605" lon="5.85871">
        <ele>604.03</ele>
        <time>2020-02-03T14:52:27.000Z</time>
      </trkpt>
      <trkpt lat="45.19595" lon="5.85869">
        <ele>602.34</ele>
        <time>2020-02-03T14:52:32.000Z</time>
      </trkpt>
      <trkpt lat="45.19579" lon="5.85868">
        <ele>604.43</ele>
        <time>2020-02-03T14:52:37.000Z</time>
      </trkpt>
      <trkpt lat="45.19561" lon="5.8587">
        <ele>605.93</ele>
        <time>2020-02-03T14:52:42.000Z</time>
      </trkpt>
      <trkpt lat="45.19548" lon="5.85873">
        <ele>611.05</ele>
        <time>2020-02-03T14:52:47.000Z</time>
      </trkpt>
      <trkpt lat="45.19539" lon="5.8588">
        <ele>611.86</ele>
        <time>2020-02-03T14:52:52.000Z</time>
      </trkpt>
      <trkpt lat="45.19532" lon="5.85894">
        <ele>614</ele>
        <time>2020-02-03T14:52:57.000Z</time>
      </trkpt>
      <trkpt lat="45.19517" lon="5.85906">
        <ele>612.4</ele>
        <time>2020-02-03T14:53:02.000Z</time>
      </trkpt>
      <trkpt lat="45.19502" lon="5.85905">
        <ele>610.37</ele>
        <time>2020-02-03T14:53:07.000Z</time>
      </trkpt>
      <trkpt lat="45.19487" lon="5.85898">
        <ele>610.4</ele>
        <time>2020-02-03T14:53:12.000Z</time>
      </trkpt>
      <trkpt lat="45.19469" lon="5.8589">
        <ele>607.74</ele>
        <time>2020-02-03T14:53:17.000Z</time>
      </trkpt>
      <trkpt lat="45.19443" lon="5.85876">
        <ele>605.31</ele>
        <time>2020-02-03T14:53:22.000Z</time>
      </trkpt>
      <trkpt lat="45.19413" lon="5.85857">
        <ele>602.38</ele>
        <time>2020-02-03T14:53:27.000Z</time>
      </trkpt>
      <trkpt lat="45.19372" lon="5.85838">
        <ele>601.59</ele>
        <time>2020-02-03T14:53:32.000Z</time>
      </trkpt>
      <trkpt lat="45.19343" lon="5.85813">
        <ele>602.28</ele>
        <time>2020-02-03T14:53:37.000Z</time>
      </trkpt>
      <trkpt lat="45.1932" lon="5.85789">
        <ele>604.72</ele>
        <time>2020-02-03T14:53:42.000Z</time>
      </trkpt>
      <trkpt lat="45.19308" lon="5.85772">
        <ele>602.02</ele>
        <time>2020-02-03T14:53:47.000Z</time>
      </trkpt>
      <trkpt lat="45.19286" lon="5.85737">
        <ele>600.26</ele>
        <time>2020-02-03T14:53:52.000Z</time>
      </trkpt>
      <trkpt lat="45.19259" lon="5.85705">
        <ele>598.42</ele>
        <time>2020-02-03T14:53:57.000Z</time>
      </trkpt>
      <trkpt lat="45.19231" lon="5.85674">
        <ele>595.21</ele>
        <time>2020-02-03T14:54:02.000Z</time>
      </trkpt>
      <trkpt lat="45.19212" lon="5.85647">
        <ele>595.2</ele>
        <time>2020-02-03T14:54:07.000Z</time>
      </trkpt>
      <trkpt lat="45.19184" lon="5.85617">
        <ele>593.28</ele>
        <time>2020-02-03T14:54:12.000Z</time>
      </trkpt>
      <trkpt lat="45.19157" lon="5.85605">
        <ele>591.53</ele>
        <time>2020-02-03T14:54:17.000Z</time>
      </trkpt>
      <trkpt lat="45.19127" lon="5.85609">
        <ele>587.4</ele>
        <time>2020-02-03T14:54:22.000Z</time>
      </trkpt>
      <trkpt lat="45.19106" lon="5.85613">
        <ele>584.06</ele>
        <time>2020-02-03T14:54:27.000Z</time>
      </trkpt>
      <trkpt lat="45.1909" lon="5.85622">
        <ele>577.14</ele>
        <time>2020-02-03T14:54:32.000Z</time>
      </trkpt>
      <trkpt lat="45.19069" lon="5.85624">
        <ele>577.51</ele>
        <time>2020-02-03T14:54:37.000Z</time>
      </trkpt>
      <trkpt lat="45.19054" lon="5.85637">
        <ele>576.36</ele>
        <time>2020-02-03T14:54:42.000Z</time>
      </trkpt>
      <trkpt lat="45.19044" lon="5.85663">
        <ele>580.08</ele>
        <time>2020-02-03T14:54:47.000Z</time>
      </trkpt>
      <trkpt lat="45.1904" lon="5.85684">
        <ele>581.63</ele>
        <time>2020-02-03T14:54:52.000Z</time>
      </trkpt>
      <trkpt lat="45.19035" lon="5.85701">
        <ele>583.06</ele>
        <time>2020-02-03T14:54:57.000Z</time>
      </trkpt>
      <trkpt lat="45.19026" lon="5.85734">
        <ele>582.47</ele>
        <time>2020-02-03T14:55:02.000Z</time>
      </trkpt>
      <trkpt lat="45.19021" lon="5.8577">
        <ele>581.45</ele>
        <time>2020-02-03T14:55:07.000Z</time>
      </trkpt>
      <trkpt lat="45.1901" lon="5.85817">
        <ele>578.7</ele>
        <time>2020-02-03T14:55:12.000Z</time>
      </trkpt>
      <trkpt lat="45.19005" lon="5.85862">
        <ele>580.14</ele>
        <time>2020-02-03T14:55:17.000Z</time>
      </trkpt>
      <trkpt lat="45.19007" lon="5.85894">
        <ele>578.17</ele>
        <time>2020-02-03T14:55:22.000Z</time>
      </trkpt>
      <trkpt lat="45.19008" lon="5.85935">
        <ele>574.83</ele>
        <time>2020-02-03T14:55:27.000Z</time>
      </trkpt>
      <trkpt lat="45.19008" lon="5.85987">
        <ele>572.66</ele>
        <time>2020-02-03T14:55:32.000Z</time>
      </trkpt>
      <trkpt lat="45.19004" lon="5.86025">
        <ele>573.81</ele>
        <time>2020-02-03T14:55:37.000Z</time>
      </trkpt>
      <trkpt lat="45.18999" lon="5.86054">
        <ele>576.29</ele>
        <time>2020-02-03T14:55:42.000Z</time>
      </trkpt>
      <trkpt lat="45.18997" lon="5.86084">
        <ele>578.19</ele>
        <time>2020-02-03T14:55:47.000Z</time>
      </trkpt>
      <trkpt lat="45.18994" lon="5.86115">
        <ele>579.26</ele>
        <time>2020-02-03T14:55:52.000Z</time>
      </trkpt>
      <trkpt lat="45.1899" lon="5.86145">
        <ele>581.18</ele>
        <time>2020-02-03T14:55:57.000Z</time>
      </trkpt>
      <trkpt lat="45.18987" lon="5.86175">
        <ele>582.55</ele>
        <time>2020-02-03T14:56:02.000Z</time>
      </trkpt>
      <trkpt lat="45.18985" lon="5.86203">
        <ele>583.04</ele>
        <time>2020-02-03T14:56:07.000Z</time>
      </trkpt>
      <trkpt lat="45.18983" lon="5.86234">
        <ele>586.17</ele>
        <time>2020-02-03T14:56:12.000Z</time>
      </trkpt>
      <trkpt lat="45.18981" lon="5.86263">
        <ele>585.58</ele>
        <time>2020-02-03T14:56:17.000Z</time>
      </trkpt>
      <trkpt lat="45.18977" lon="5.86289">
        <ele>587.88</ele>
        <time>2020-02-03T14:56:22.000Z</time>
      </trkpt>
      <trkpt lat="45.18972" lon="5.86318">
        <ele>589.24</ele>
        <time>2020-02-03T14:56:27.000Z</time>
      </trkpt>
      <trkpt lat="45.18971" lon="5.86345">
        <ele>592.32</ele>
        <time>2020-02-03T14:56:32.000Z</time>
      </trkpt>
      <trkpt lat="45.18971" lon="5.8637">
        <ele>594.02</ele>
        <time>2020-02-03T14:56:37.000Z</time>
      </trkpt>
      <trkpt lat="45.18969" lon="5.86393">
        <ele>594.93</ele>
        <time>2020-02-03T14:56:42.000Z</time>
      </trkpt>
      <trkpt lat="45.18964" lon="5.86417">
        <ele>597.05</ele>
        <time>2020-02-03T14:56:47.000Z</time>
      </trkpt>
      <trkpt lat="45.18959" lon="5.86441">
        <ele>600.75</ele>
        <time>2020-02-03T14:56:52.000Z</time>
      </trkpt>
      <trkpt lat="45.18961" lon="5.86466">
        <ele>601.82</ele>
        <time>2020-02-03T14:56:57.000Z</time>
      </trkpt>
      <trkpt lat="45.18964" lon="5.86491">
        <ele>603.36</ele>
        <time>2020-02-03T14:57:02.000Z</time>
      </trkpt>
      <trkpt lat="45.18958" lon="5.86511">
        <ele>601.68</ele>
        <time>2020-02-03T14:57:07.000Z</time>
      </trkpt>
      <trkpt lat="45.18939" lon="5.86515">
        <ele>599.5</ele>
        <time>2020-02-03T14:57:12.000Z</time>
      </trkpt>
      <trkpt lat="45.18924" lon="5.86522">
        <ele>600.73</ele>
        <time>2020-02-03T14:57:17.000Z</time>
      </trkpt>
      <trkpt lat="45.18911" lon="5.86537">
        <ele>603.14</ele>
        <time>2020-02-03T14:57:22.000Z</time>
      </trkpt>
      <trkpt lat="45.18899" lon="5.86552">
        <ele>604.95</ele>
        <time>2020-02-03T14:57:27.000Z</time>
      </trkpt>
      <trkpt lat="45.1889" lon="5.86562">
        <ele>605.94</ele>
        <time>2020-02-03T14:57:32.000Z</time>
      </trkpt>
      <trkpt lat="45.18882" lon="5.86579">
        <ele>602.57</ele>
        <time>2020-02-03T14:57:37.000Z</time>
      </trkpt>
      <trkpt lat="45.18871" lon="5.86606">
        <ele>603.44</ele>
        <time>2020-02-03T14:57:42.000Z</time>
      </trkpt>
      <trkpt lat="45.18854" lon="5.86623">
        <ele>604.52</ele>
        <time>2020-02-03T14:57:47.000Z</time>
      </trkpt>
      <trkpt lat="45.18841" lon="5.86643">
        <ele>605.08</ele>
        <time>2020-02-03T14:57:52.000Z</time>
      </trkpt>
      <trkpt lat="45.18828" lon="5.86664">
        <ele>608.68</ele>
        <time>2020-02-03T14:57:57.000Z</time>
      </trkpt>
      <trkpt lat="45.18813" lon="5.86689">
        <ele>606.67</ele>
        <time>2020-02-03T14:58:02.000Z</time>
      </trkpt>
      <trkpt lat="45.18797" lon="5.86708">
        <ele>605.24</ele>
        <time>2020-02-03T14:58:07.000Z</time>
      </trkpt>
      <trkpt lat="45.1878" lon="5.86726">
        <ele>605.56</ele>
        <time>2020-02-03T14:58:12.000Z</time>
      </trkpt>
      <trkpt lat="45.18755" lon="5.86743">
        <ele>607.61</ele>
        <time>2020-02-03T14:58:17.000Z</time>
      </trkpt>
      <trkpt lat="45.18735" lon="5.86757">
        <ele>607.08</ele>
        <time>2020-02-03T14:58:22.000Z</time>
      </trkpt>
      <trkpt lat="45.18716" lon="5.86766">
        <ele>607.61</ele>
        <time>2020-02-03T14:58:27.000Z</time>
      </trkpt>
      <trkpt lat="45.18705" lon="5.86777">
        <ele>605.05</ele>
        <time>2020-02-03T14:58:32.000Z</time>
      </trkpt>
      <trkpt lat="45.18695" lon="5.86797">
        <ele>607.37</ele>
        <time>2020-02-03T14:58:37.000Z</time>
      </trkpt>
      <trkpt lat="45.18684" lon="5.86822">
        <ele>611.19</ele>
        <time>2020-02-03T14:58:42.000Z</time>
      </trkpt>
      <trkpt lat="45.18674" lon="5.86841">
        <ele>614.37</ele>
        <time>2020-02-03T14:58:47.000Z</time>
      </trkpt>
      <trkpt lat="45.18667" lon="5.86866">
        <ele>616.5</ele>
        <time>2020-02-03T14:58:52.000Z</time>
      </trkpt>
      <trkpt lat="45.18664" lon="5.86895">
        <ele>616.2</ele>
        <time>2020-02-03T14:58:57.000Z</time>
      </trkpt>
      <trkpt lat="45.18653" lon="5.86918">
        <ele>618.87</ele>
        <time>2020-02-03T14:59:02.000Z</time>
      </trkpt>
      <trkpt lat="45.18633" lon="5.86924">
        <ele>619.69</ele>
        <time>2020-02-03T14:59:07.000Z</time>
      </trkpt>
      <trkpt lat="45.18619" lon="5.86909">
        <ele>620.67</ele>
        <time>2020-02-03T14:59:12.000Z</time>
      </trkpt>
      <trkpt lat="45.18611" lon="5.86883">
        <ele>620.74</ele>
        <time>2020-02-03T14:59:17.000Z</time>
      </trkpt>
      <trkpt lat="45.18598" lon="5.86863">
        <ele>620.1</ele>
        <time>2020-02-03T14:59:22.000Z</time>
      </trkpt>
      <trkpt lat="45.18584" lon="5.86877">
        <ele>620.1</ele>
        <time>2020-02-03T14:59:27.000Z</time>
      </trkpt>
      <trkpt lat="45.18591" lon="5.86905">
        <ele>626.02</ele>
        <time>2020-02-03T14:59:32.000Z</time>
      </trkpt>
      <trkpt lat="45.18596" lon="5.86929">
        <ele>627.4</ele>
        <time>2020-02-03T14:59:37.000Z</time>
      </trkpt>
      <trkpt lat="45.18598" lon="5.86955">
        <ele>629.78</ele>
        <time>2020-02-03T14:59:42.000Z</time>
      </trkpt>
      <trkpt lat="45.18595" lon="5.86985">
        <ele>629.52</ele>
        <time>2020-02-03T14:59:47.000Z</time>
      </trkpt>
      <trkpt lat="45.18587" lon="5.87008">
        <ele>632.11</ele>
        <time>2020-02-03T14:59:52.000Z</time>
      </trkpt>
      <trkpt lat="45.18576" lon="5.87041">
        <ele>633.23</ele>
        <time>2020-02-03T14:59:57.000Z</time>
      </trkpt>
      <trkpt lat="45.1856" lon="5.87056">
        <ele>634.05</ele>
        <time>2020-02-03T15:00:02.000Z</time>
      </trkpt>
      <trkpt lat="45.18544" lon="5.87056">
        <ele>640.24</ele>
        <time>2020-02-03T15:00:07.000Z</time>
      </trkpt>
      <trkpt lat="45.18524" lon="5.87053">
        <ele>642.06</ele>
        <time>2020-02-03T15:00:12.000Z</time>
      </trkpt>
      <trkpt lat="45.18508" lon="5.87063">
        <ele>643.31</ele>
        <time>2020-02-03T15:00:17.000Z</time>
      </trkpt>
      <trkpt lat="45.18495" lon="5.87083">
        <ele>646.78</ele>
        <time>2020-02-03T15:00:22.000Z</time>
      </trkpt>
      <trkpt lat="45.18476" lon="5.87096">
        <ele>648.33</ele>
        <time>2020-02-03T15:00:27.000Z</time>
      </trkpt>
      <trkpt lat="45.18457" lon="5.87103">
        <ele>651.2</ele>
        <time>2020-02-03T15:00:32.000Z</time>
      </trkpt>
      <trkpt lat="45.18436" lon="5.87109">
        <ele>652.77</ele>
        <time>2020-02-03T15:00:37.000Z</time>
      </trkpt>
      <trkpt lat="45.18417" lon="5.87117">
        <ele>654.11</ele>
        <time>2020-02-03T15:00:42.000Z</time>
      </trkpt>
      <trkpt lat="45.18405" lon="5.87141">
        <ele>655.69</ele>
        <time>2020-02-03T15:00:47.000Z</time>
      </trkpt>
      <trkpt lat="45.18415" lon="5.8717">
        <ele>656.75</ele>
        <time>2020-02-03T15:00:52.000Z</time>
      </trkpt>
      <trkpt lat="45.18439" lon="5.87185">
        <ele>659.27</ele>
        <time>2020-02-03T15:00:57.000Z</time>
      </trkpt>
      <trkpt lat="45.18434" lon="5.87201">
        <ele>660.57</ele>
        <time>2020-02-03T15:01:02.000Z</time>
      </trkpt>
      <trkpt lat="45.1842" lon="5.87214">
        <ele>660.86</ele>
        <time>2020-02-03T15:01:07.000Z</time>
      </trkpt>
      <trkpt lat="45.18408" lon="5.87228">
        <ele>663.47</ele>
        <time>2020-02-03T15:01:12.000Z</time>
      </trkpt>
      <trkpt lat="45.18399" lon="5.87246">
        <ele>664.31</ele>
        <time>2020-02-03T15:01:17.000Z</time>
      </trkpt>
      <trkpt lat="45.18391" lon="5.87268">
        <ele>668.01</ele>
        <time>2020-02-03T15:01:22.000Z</time>
      </trkpt>
      <trkpt lat="45.18387" lon="5.8729">
        <ele>670.41</ele>
        <time>2020-02-03T15:01:27.000Z</time>
      </trkpt>
      <trkpt lat="45.18389" lon="5.87313">
        <ele>674.16</ele>
        <time>2020-02-03T15:01:32.000Z</time>
      </trkpt>
      <trkpt lat="45.18393" lon="5.87334">
        <ele>674.5</ele>
        <time>2020-02-03T15:01:37.000Z</time>
      </trkpt>
      <trkpt lat="45.18395" lon="5.87356">
        <ele>675.62</ele>
        <time>2020-02-03T15:01:42.000Z</time>
      </trkpt>
      <trkpt lat="45.18392" lon="5.87378">
        <ele>678.53</ele>
        <time>2020-02-03T15:01:47.000Z</time>
      </trkpt>
      <trkpt lat="45.18381" lon="5.87385">
        <ele>680.23</ele>
        <time>2020-02-03T15:01:52.000Z</time>
      </trkpt>
      <trkpt lat="45.18374" lon="5.87376">
        <ele>686.5</ele>
        <time>2020-02-03T15:02:58.000Z</time>
      </trkpt>
      <trkpt lat="45.18379" lon="5.87381">
        <ele>696.03</ele>
        <time>2020-02-03T15:03:07.000Z</time>
      </trkpt>
    </trkseg>
  </trk>
</gpx>